<?xml version="1.0" encoding="UTF-8" standalone="no" ?>
<gpx xmlns="http://www.topografix.com/GPX/1/1" xmlns:xsi="http://www.w3.org/2001/XMLSchema-instance" xsi:schemaLocation="http://www.topografix.com/GPX/1/1 http://www.topografix.com/GPX/1/1/gpx.xsd" version="1.1" creator="VisuGPX - https://www.visugpx.com">
  <metadata>
    <name>Le Grand Roc</name>
  </metadata>
  <wpt lat="45.66574" lon="6.29801">
    <ele>818.2</ele>
    <name><![CDATA[Parking après le lieu dit Sous le Col]]></name>
  </wpt>
  <wpt lat="45.66887" lon="6.26986">
    <ele>1521</ele>
    <name><![CDATA[Col du Haut du Four]]></name>
  </wpt>
  <wpt lat="45.66883" lon="6.26989">
    <ele>1521.2</ele>
    <name><![CDATA[Chalets du Haut du Four]]></name>
  </wpt>
  <wpt lat="45.66737" lon="6.26903">
    <ele>1545.1</ele>
    <name><![CDATA[Chalets du Haut du Four]]></name>
  </wpt>
  <wpt lat="45.66445" lon="6.26852">
    <ele>1608.4</ele>
    <name><![CDATA[La Charmette]]></name>
  </wpt>
  <wpt lat="45.6598" lon="6.26346">
    <ele>1728</ele>
    <name><![CDATA[Mont d'Orisan]]></name>
  </wpt>
  <wpt lat="45.65279" lon="6.26195">
    <ele>1744.8</ele>
    <name><![CDATA[Carrefour vers le Grand Roc]]></name>
  </wpt>
  <wpt lat="45.64878" lon="6.26022">
    <ele>1744.3</ele>
    <name><![CDATA[Le Grand Roc]]></name>
  </wpt>
  <wpt lat="45.65282" lon="6.26198">
    <ele>1744.4</ele>
    <name><![CDATA[Croisement ]]></name>
  </wpt>
  <wpt lat="45.65545" lon="6.26866">
    <ele>1570.1</ele>
    <name><![CDATA[Chalets d'Orisan]]></name>
  </wpt>
  <wpt lat="45.66574" lon="6.29795">
    <ele>818.8</ele>
    <name><![CDATA[Parking après le lieu dit Sous le Col]]></name>
  </wpt>
  <trk>
    <name><![CDATA[Le Grand Roc]]></name>
    <trkseg>
      <trkpt lat="45.66574" lon="6.29801">
        <ele>801</ele>
        <time>2020-09-16T19:32:31+02:00</time>
      </trkpt>
      <trkpt lat="45.66574" lon="6.29801">
        <ele>801</ele>
        <time>2020-09-16T19:32:31+02:00</time>
      </trkpt>
      <trkpt lat="45.66576" lon="6.29789">
        <ele>801</ele>
        <time>2020-09-16T19:32:36+02:00</time>
      </trkpt>
      <trkpt lat="45.66579" lon="6.2978">
        <ele>802</ele>
        <time>2020-09-16T19:32:41+02:00</time>
      </trkpt>
      <trkpt lat="45.66585" lon="6.29768">
        <ele>805</ele>
        <time>2020-09-16T19:32:46+02:00</time>
      </trkpt>
      <trkpt lat="45.66594" lon="6.29758">
        <ele>808</ele>
        <time>2020-09-16T19:32:51+02:00</time>
      </trkpt>
      <trkpt lat="45.666" lon="6.29749">
        <ele>810</ele>
        <time>2020-09-16T19:32:56+02:00</time>
      </trkpt>
      <trkpt lat="45.66606" lon="6.29734">
        <ele>813</ele>
        <time>2020-09-16T19:33:01+02:00</time>
      </trkpt>
      <trkpt lat="45.6661" lon="6.2972">
        <ele>817</ele>
        <time>2020-09-16T19:33:06+02:00</time>
      </trkpt>
      <trkpt lat="45.66612" lon="6.29685">
        <ele>826</ele>
        <time>2020-09-16T19:33:11+02:00</time>
      </trkpt>
      <trkpt lat="45.66607" lon="6.29671">
        <ele>830</ele>
        <time>2020-09-16T19:33:16+02:00</time>
      </trkpt>
      <trkpt lat="45.66604" lon="6.29654">
        <ele>832</ele>
        <time>2020-09-16T19:33:21+02:00</time>
      </trkpt>
      <trkpt lat="45.66594" lon="6.29622">
        <ele>835</ele>
        <time>2020-09-16T19:33:26+02:00</time>
      </trkpt>
      <trkpt lat="45.66589" lon="6.29597">
        <ele>837</ele>
        <time>2020-09-16T19:33:31+02:00</time>
      </trkpt>
      <trkpt lat="45.66586" lon="6.29578">
        <ele>838</ele>
        <time>2020-09-16T19:33:36+02:00</time>
      </trkpt>
      <trkpt lat="45.6658" lon="6.2956">
        <ele>839</ele>
        <time>2020-09-16T19:33:41+02:00</time>
      </trkpt>
      <trkpt lat="45.66573" lon="6.29543">
        <ele>840</ele>
        <time>2020-09-16T19:33:46+02:00</time>
      </trkpt>
      <trkpt lat="45.66564" lon="6.29512">
        <ele>842</ele>
        <time>2020-09-16T19:33:51+02:00</time>
      </trkpt>
      <trkpt lat="45.66555" lon="6.29503">
        <ele>843</ele>
        <time>2020-09-16T19:33:56+02:00</time>
      </trkpt>
      <trkpt lat="45.66542" lon="6.29495">
        <ele>843</ele>
        <time>2020-09-16T19:34:01+02:00</time>
      </trkpt>
      <trkpt lat="45.66519" lon="6.2949">
        <ele>843</ele>
        <time>2020-09-16T19:34:06+02:00</time>
      </trkpt>
      <trkpt lat="45.66511" lon="6.29488">
        <ele>843</ele>
        <time>2020-09-16T19:34:11+02:00</time>
      </trkpt>
      <trkpt lat="45.66506" lon="6.29484">
        <ele>844</ele>
        <time>2020-09-16T19:34:16+02:00</time>
      </trkpt>
      <trkpt lat="45.66501" lon="6.29471">
        <ele>845</ele>
        <time>2020-09-16T19:34:21+02:00</time>
      </trkpt>
      <trkpt lat="45.66499" lon="6.29455">
        <ele>848</ele>
        <time>2020-09-16T19:34:26+02:00</time>
      </trkpt>
      <trkpt lat="45.66504" lon="6.29426">
        <ele>854</ele>
        <time>2020-09-16T19:34:31+02:00</time>
      </trkpt>
      <trkpt lat="45.66513" lon="6.2937">
        <ele>866</ele>
        <time>2020-09-16T19:34:36+02:00</time>
      </trkpt>
      <trkpt lat="45.6652" lon="6.29355">
        <ele>870</ele>
        <time>2020-09-16T19:34:41+02:00</time>
      </trkpt>
      <trkpt lat="45.66519" lon="6.29342">
        <ele>873</ele>
        <time>2020-09-16T19:34:46+02:00</time>
      </trkpt>
      <trkpt lat="45.66515" lon="6.29322">
        <ele>877</ele>
        <time>2020-09-16T19:34:51+02:00</time>
      </trkpt>
      <trkpt lat="45.6651" lon="6.29275">
        <ele>886</ele>
        <time>2020-09-16T19:34:56+02:00</time>
      </trkpt>
      <trkpt lat="45.66507" lon="6.2925">
        <ele>890</ele>
        <time>2020-09-16T19:35:01+02:00</time>
      </trkpt>
      <trkpt lat="45.66504" lon="6.29233">
        <ele>893</ele>
        <time>2020-09-16T19:35:06+02:00</time>
      </trkpt>
      <trkpt lat="45.66502" lon="6.29215">
        <ele>897</ele>
        <time>2020-09-16T19:35:11+02:00</time>
      </trkpt>
      <trkpt lat="45.66505" lon="6.29188">
        <ele>903</ele>
        <time>2020-09-16T19:35:16+02:00</time>
      </trkpt>
      <trkpt lat="45.66508" lon="6.29163">
        <ele>909</ele>
        <time>2020-09-16T19:35:21+02:00</time>
      </trkpt>
      <trkpt lat="45.66508" lon="6.29139">
        <ele>915</ele>
        <time>2020-09-16T19:35:26+02:00</time>
      </trkpt>
      <trkpt lat="45.66513" lon="6.29119">
        <ele>920</ele>
        <time>2020-09-16T19:35:31+02:00</time>
      </trkpt>
      <trkpt lat="45.66515" lon="6.29101">
        <ele>925</ele>
        <time>2020-09-16T19:35:36+02:00</time>
      </trkpt>
      <trkpt lat="45.6652" lon="6.29042">
        <ele>935</ele>
        <time>2020-09-16T19:35:41+02:00</time>
      </trkpt>
      <trkpt lat="45.66524" lon="6.29015">
        <ele>939</ele>
        <time>2020-09-16T19:35:46+02:00</time>
      </trkpt>
      <trkpt lat="45.66532" lon="6.28984">
        <ele>942</ele>
        <time>2020-09-16T19:35:51+02:00</time>
      </trkpt>
      <trkpt lat="45.6654" lon="6.28972">
        <ele>945</ele>
        <time>2020-09-16T19:35:56+02:00</time>
      </trkpt>
      <trkpt lat="45.66556" lon="6.28952">
        <ele>953</ele>
        <time>2020-09-16T19:36:01+02:00</time>
      </trkpt>
      <trkpt lat="45.6656" lon="6.28939">
        <ele>954</ele>
        <time>2020-09-16T19:36:06+02:00</time>
      </trkpt>
      <trkpt lat="45.66567" lon="6.28897">
        <ele>953</ele>
        <time>2020-09-16T19:36:11+02:00</time>
      </trkpt>
      <trkpt lat="45.66573" lon="6.28878">
        <ele>953</ele>
        <time>2020-09-16T19:36:16+02:00</time>
      </trkpt>
      <trkpt lat="45.66585" lon="6.28849">
        <ele>956</ele>
        <time>2020-09-16T19:36:21+02:00</time>
      </trkpt>
      <trkpt lat="45.66597" lon="6.28819">
        <ele>957</ele>
        <time>2020-09-16T19:36:26+02:00</time>
      </trkpt>
      <trkpt lat="45.66603" lon="6.28787">
        <ele>959</ele>
        <time>2020-09-16T19:36:31+02:00</time>
      </trkpt>
      <trkpt lat="45.66612" lon="6.28761">
        <ele>967</ele>
        <time>2020-09-16T19:36:36+02:00</time>
      </trkpt>
      <trkpt lat="45.66623" lon="6.28717">
        <ele>973</ele>
        <time>2020-09-16T19:36:41+02:00</time>
      </trkpt>
      <trkpt lat="45.66637" lon="6.28682">
        <ele>976</ele>
        <time>2020-09-16T19:36:46+02:00</time>
      </trkpt>
      <trkpt lat="45.66645" lon="6.28675">
        <ele>981</ele>
        <time>2020-09-16T19:36:51+02:00</time>
      </trkpt>
      <trkpt lat="45.66661" lon="6.28667">
        <ele>989</ele>
        <time>2020-09-16T19:36:56+02:00</time>
      </trkpt>
      <trkpt lat="45.66667" lon="6.28662">
        <ele>992</ele>
        <time>2020-09-16T19:37:01+02:00</time>
      </trkpt>
      <trkpt lat="45.66676" lon="6.28647">
        <ele>1000</ele>
        <time>2020-09-16T19:37:06+02:00</time>
      </trkpt>
      <trkpt lat="45.6668" lon="6.28639">
        <ele>1004</ele>
        <time>2020-09-16T19:37:11+02:00</time>
      </trkpt>
      <trkpt lat="45.6668" lon="6.2863">
        <ele>1004</ele>
        <time>2020-09-16T19:37:16+02:00</time>
      </trkpt>
      <trkpt lat="45.66677" lon="6.28626">
        <ele>1002</ele>
        <time>2020-09-16T19:37:21+02:00</time>
      </trkpt>
      <trkpt lat="45.66673" lon="6.28621">
        <ele>1000</ele>
        <time>2020-09-16T19:37:26+02:00</time>
      </trkpt>
      <trkpt lat="45.66659" lon="6.28624">
        <ele>993</ele>
        <time>2020-09-16T19:37:31+02:00</time>
      </trkpt>
      <trkpt lat="45.66653" lon="6.28616">
        <ele>994</ele>
        <time>2020-09-16T19:37:36+02:00</time>
      </trkpt>
      <trkpt lat="45.66645" lon="6.28601">
        <ele>995</ele>
        <time>2020-09-16T19:37:41+02:00</time>
      </trkpt>
      <trkpt lat="45.66645" lon="6.28587">
        <ele>998</ele>
        <time>2020-09-16T19:37:46+02:00</time>
      </trkpt>
      <trkpt lat="45.66649" lon="6.28581">
        <ele>1002</ele>
        <time>2020-09-16T19:37:51+02:00</time>
      </trkpt>
      <trkpt lat="45.66656" lon="6.28565">
        <ele>1010</ele>
        <time>2020-09-16T19:37:56+02:00</time>
      </trkpt>
      <trkpt lat="45.6666" lon="6.28542">
        <ele>1019</ele>
        <time>2020-09-16T19:38:01+02:00</time>
      </trkpt>
      <trkpt lat="45.66662" lon="6.28508">
        <ele>1029</ele>
        <time>2020-09-16T19:38:06+02:00</time>
      </trkpt>
      <trkpt lat="45.66658" lon="6.28485">
        <ele>1035</ele>
        <time>2020-09-16T19:38:11+02:00</time>
      </trkpt>
      <trkpt lat="45.66649" lon="6.28451">
        <ele>1047</ele>
        <time>2020-09-16T19:38:16+02:00</time>
      </trkpt>
      <trkpt lat="45.6664" lon="6.28434">
        <ele>1053</ele>
        <time>2020-09-16T19:38:21+02:00</time>
      </trkpt>
      <trkpt lat="45.66633" lon="6.28427">
        <ele>1055</ele>
        <time>2020-09-16T19:38:26+02:00</time>
      </trkpt>
      <trkpt lat="45.66614" lon="6.28412">
        <ele>1059</ele>
        <time>2020-09-16T19:38:31+02:00</time>
      </trkpt>
      <trkpt lat="45.66606" lon="6.28398">
        <ele>1063</ele>
        <time>2020-09-16T19:38:36+02:00</time>
      </trkpt>
      <trkpt lat="45.66598" lon="6.28383">
        <ele>1069</ele>
        <time>2020-09-16T19:38:41+02:00</time>
      </trkpt>
      <trkpt lat="45.66595" lon="6.28373">
        <ele>1072</ele>
        <time>2020-09-16T19:38:46+02:00</time>
      </trkpt>
      <trkpt lat="45.66587" lon="6.28361">
        <ele>1073</ele>
        <time>2020-09-16T19:38:51+02:00</time>
      </trkpt>
      <trkpt lat="45.66575" lon="6.28341">
        <ele>1076</ele>
        <time>2020-09-16T19:38:56+02:00</time>
      </trkpt>
      <trkpt lat="45.66571" lon="6.28329">
        <ele>1079</ele>
        <time>2020-09-16T19:39:01+02:00</time>
      </trkpt>
      <trkpt lat="45.66565" lon="6.28308">
        <ele>1084</ele>
        <time>2020-09-16T19:39:06+02:00</time>
      </trkpt>
      <trkpt lat="45.66562" lon="6.28282">
        <ele>1091</ele>
        <time>2020-09-16T19:39:11+02:00</time>
      </trkpt>
      <trkpt lat="45.66559" lon="6.2826">
        <ele>1097</ele>
        <time>2020-09-16T19:39:16+02:00</time>
      </trkpt>
      <trkpt lat="45.66558" lon="6.28225">
        <ele>1109</ele>
        <time>2020-09-16T19:39:21+02:00</time>
      </trkpt>
      <trkpt lat="45.66559" lon="6.28171">
        <ele>1134</ele>
        <time>2020-09-16T19:39:26+02:00</time>
      </trkpt>
      <trkpt lat="45.66554" lon="6.28146">
        <ele>1142</ele>
        <time>2020-09-16T19:39:31+02:00</time>
      </trkpt>
      <trkpt lat="45.66541" lon="6.28111">
        <ele>1140</ele>
        <time>2020-09-16T19:39:36+02:00</time>
      </trkpt>
      <trkpt lat="45.66541" lon="6.281">
        <ele>1138</ele>
        <time>2020-09-16T19:39:41+02:00</time>
      </trkpt>
      <trkpt lat="45.66542" lon="6.28084">
        <ele>1136</ele>
        <time>2020-09-16T19:39:46+02:00</time>
      </trkpt>
      <trkpt lat="45.6655" lon="6.28074">
        <ele>1141</ele>
        <time>2020-09-16T19:39:51+02:00</time>
      </trkpt>
      <trkpt lat="45.66563" lon="6.28062">
        <ele>1148</ele>
        <time>2020-09-16T19:39:56+02:00</time>
      </trkpt>
      <trkpt lat="45.66579" lon="6.28056">
        <ele>1157</ele>
        <time>2020-09-16T19:40:01+02:00</time>
      </trkpt>
      <trkpt lat="45.66594" lon="6.28049">
        <ele>1167</ele>
        <time>2020-09-16T19:40:06+02:00</time>
      </trkpt>
      <trkpt lat="45.66612" lon="6.28034">
        <ele>1176</ele>
        <time>2020-09-16T19:40:11+02:00</time>
      </trkpt>
      <trkpt lat="45.66637" lon="6.28007">
        <ele>1187</ele>
        <time>2020-09-16T19:40:16+02:00</time>
      </trkpt>
      <trkpt lat="45.66658" lon="6.27982">
        <ele>1196</ele>
        <time>2020-09-16T19:40:21+02:00</time>
      </trkpt>
      <trkpt lat="45.66668" lon="6.27966">
        <ele>1200</ele>
        <time>2020-09-16T19:40:26+02:00</time>
      </trkpt>
      <trkpt lat="45.66685" lon="6.2794">
        <ele>1213</ele>
        <time>2020-09-16T19:40:31+02:00</time>
      </trkpt>
      <trkpt lat="45.66695" lon="6.27922">
        <ele>1217</ele>
        <time>2020-09-16T19:40:36+02:00</time>
      </trkpt>
      <trkpt lat="45.66702" lon="6.27913">
        <ele>1223</ele>
        <time>2020-09-16T19:40:41+02:00</time>
      </trkpt>
      <trkpt lat="45.66709" lon="6.27899">
        <ele>1229</ele>
        <time>2020-09-16T19:40:46+02:00</time>
      </trkpt>
      <trkpt lat="45.66716" lon="6.27876">
        <ele>1235</ele>
        <time>2020-09-16T19:40:51+02:00</time>
      </trkpt>
      <trkpt lat="45.667" lon="6.27884">
        <ele>1227</ele>
        <time>2020-09-16T19:40:56+02:00</time>
      </trkpt>
      <trkpt lat="45.667" lon="6.27874">
        <ele>1230</ele>
        <time>2020-09-16T19:41:01+02:00</time>
      </trkpt>
      <trkpt lat="45.66706" lon="6.27841">
        <ele>1244</ele>
        <time>2020-09-16T19:41:06+02:00</time>
      </trkpt>
      <trkpt lat="45.66716" lon="6.27816">
        <ele>1255</ele>
        <time>2020-09-16T19:41:11+02:00</time>
      </trkpt>
      <trkpt lat="45.66729" lon="6.27799">
        <ele>1262</ele>
        <time>2020-09-16T19:41:16+02:00</time>
      </trkpt>
      <trkpt lat="45.6675" lon="6.27787">
        <ele>1264</ele>
        <time>2020-09-16T19:41:21+02:00</time>
      </trkpt>
      <trkpt lat="45.66768" lon="6.27764">
        <ele>1274</ele>
        <time>2020-09-16T19:41:26+02:00</time>
      </trkpt>
      <trkpt lat="45.66776" lon="6.27763">
        <ele>1274</ele>
        <time>2020-09-16T19:41:31+02:00</time>
      </trkpt>
      <trkpt lat="45.66794" lon="6.27749">
        <ele>1279</ele>
        <time>2020-09-16T19:41:36+02:00</time>
      </trkpt>
      <trkpt lat="45.6681" lon="6.27749">
        <ele>1282</ele>
        <time>2020-09-16T19:41:41+02:00</time>
      </trkpt>
      <trkpt lat="45.66814" lon="6.27742">
        <ele>1286</ele>
        <time>2020-09-16T19:41:46+02:00</time>
      </trkpt>
      <trkpt lat="45.66808" lon="6.27739">
        <ele>1284</ele>
        <time>2020-09-16T19:41:51+02:00</time>
      </trkpt>
      <trkpt lat="45.66814" lon="6.27736">
        <ele>1287</ele>
        <time>2020-09-16T19:41:56+02:00</time>
      </trkpt>
      <trkpt lat="45.66821" lon="6.27733">
        <ele>1290</ele>
        <time>2020-09-16T19:42:01+02:00</time>
      </trkpt>
      <trkpt lat="45.66829" lon="6.2773">
        <ele>1293</ele>
        <time>2020-09-16T19:42:06+02:00</time>
      </trkpt>
      <trkpt lat="45.66843" lon="6.27737">
        <ele>1298</ele>
        <time>2020-09-16T19:42:11+02:00</time>
      </trkpt>
      <trkpt lat="45.66858" lon="6.27743">
        <ele>1303</ele>
        <time>2020-09-16T19:42:16+02:00</time>
      </trkpt>
      <trkpt lat="45.66866" lon="6.27744">
        <ele>1306</ele>
        <time>2020-09-16T19:42:21+02:00</time>
      </trkpt>
      <trkpt lat="45.66882" lon="6.27733">
        <ele>1314</ele>
        <time>2020-09-16T19:42:26+02:00</time>
      </trkpt>
      <trkpt lat="45.66897" lon="6.27735">
        <ele>1319</ele>
        <time>2020-09-16T19:42:31+02:00</time>
      </trkpt>
      <trkpt lat="45.66892" lon="6.2773">
        <ele>1319</ele>
        <time>2020-09-16T19:42:36+02:00</time>
      </trkpt>
      <trkpt lat="45.66899" lon="6.27727">
        <ele>1322</ele>
        <time>2020-09-16T19:42:41+02:00</time>
      </trkpt>
      <trkpt lat="45.66905" lon="6.27722">
        <ele>1325</ele>
        <time>2020-09-16T19:42:46+02:00</time>
      </trkpt>
      <trkpt lat="45.66907" lon="6.27719">
        <ele>1327</ele>
        <time>2020-09-16T19:42:51+02:00</time>
      </trkpt>
      <trkpt lat="45.66908" lon="6.27713">
        <ele>1329</ele>
        <time>2020-09-16T19:42:56+02:00</time>
      </trkpt>
      <trkpt lat="45.66905" lon="6.27708">
        <ele>1330</ele>
        <time>2020-09-16T19:43:01+02:00</time>
      </trkpt>
      <trkpt lat="45.6689" lon="6.27688">
        <ele>1334</ele>
        <time>2020-09-16T19:43:06+02:00</time>
      </trkpt>
      <trkpt lat="45.66892" lon="6.27685">
        <ele>1337</ele>
        <time>2020-09-16T19:43:11+02:00</time>
      </trkpt>
      <trkpt lat="45.66902" lon="6.27681">
        <ele>1342</ele>
        <time>2020-09-16T19:43:16+02:00</time>
      </trkpt>
      <trkpt lat="45.6692" lon="6.27676">
        <ele>1349</ele>
        <time>2020-09-16T19:43:21+02:00</time>
      </trkpt>
      <trkpt lat="45.66924" lon="6.27672">
        <ele>1351</ele>
        <time>2020-09-16T19:43:26+02:00</time>
      </trkpt>
      <trkpt lat="45.66915" lon="6.27657">
        <ele>1356</ele>
        <time>2020-09-16T19:43:31+02:00</time>
      </trkpt>
      <trkpt lat="45.66898" lon="6.2764">
        <ele>1358</ele>
        <time>2020-09-16T19:43:36+02:00</time>
      </trkpt>
      <trkpt lat="45.66904" lon="6.27638">
        <ele>1360</ele>
        <time>2020-09-16T19:43:41+02:00</time>
      </trkpt>
      <trkpt lat="45.66921" lon="6.27639">
        <ele>1364</ele>
        <time>2020-09-16T19:43:46+02:00</time>
      </trkpt>
      <trkpt lat="45.66922" lon="6.27638">
        <ele>1364</ele>
        <time>2020-09-16T19:43:51+02:00</time>
      </trkpt>
      <trkpt lat="45.66911" lon="6.27625">
        <ele>1367</ele>
        <time>2020-09-16T19:43:56+02:00</time>
      </trkpt>
      <trkpt lat="45.66892" lon="6.2761">
        <ele>1370</ele>
        <time>2020-09-16T19:44:01+02:00</time>
      </trkpt>
      <trkpt lat="45.66902" lon="6.276">
        <ele>1376</ele>
        <time>2020-09-16T19:44:06+02:00</time>
      </trkpt>
      <trkpt lat="45.66907" lon="6.2759">
        <ele>1381</ele>
        <time>2020-09-16T19:44:11+02:00</time>
      </trkpt>
      <trkpt lat="45.66901" lon="6.27569">
        <ele>1388</ele>
        <time>2020-09-16T19:44:16+02:00</time>
      </trkpt>
      <trkpt lat="45.66908" lon="6.27567">
        <ele>1391</ele>
        <time>2020-09-16T19:44:21+02:00</time>
      </trkpt>
      <trkpt lat="45.66918" lon="6.27563">
        <ele>1395</ele>
        <time>2020-09-16T19:44:26+02:00</time>
      </trkpt>
      <trkpt lat="45.66926" lon="6.27559">
        <ele>1397</ele>
        <time>2020-09-16T19:44:31+02:00</time>
      </trkpt>
      <trkpt lat="45.66933" lon="6.27548">
        <ele>1403</ele>
        <time>2020-09-16T19:44:36+02:00</time>
      </trkpt>
      <trkpt lat="45.66935" lon="6.27534">
        <ele>1409</ele>
        <time>2020-09-16T19:44:41+02:00</time>
      </trkpt>
      <trkpt lat="45.66929" lon="6.27528">
        <ele>1411</ele>
        <time>2020-09-16T19:44:46+02:00</time>
      </trkpt>
      <trkpt lat="45.6692" lon="6.27522">
        <ele>1412</ele>
        <time>2020-09-16T19:44:51+02:00</time>
      </trkpt>
      <trkpt lat="45.66916" lon="6.27513">
        <ele>1415</ele>
        <time>2020-09-16T19:44:56+02:00</time>
      </trkpt>
      <trkpt lat="45.66911" lon="6.27501">
        <ele>1418</ele>
        <time>2020-09-16T19:45:01+02:00</time>
      </trkpt>
      <trkpt lat="45.66918" lon="6.27491">
        <ele>1424</ele>
        <time>2020-09-16T19:45:06+02:00</time>
      </trkpt>
      <trkpt lat="45.66922" lon="6.27482">
        <ele>1427</ele>
        <time>2020-09-16T19:45:11+02:00</time>
      </trkpt>
      <trkpt lat="45.66902" lon="6.27467">
        <ele>1428</ele>
        <time>2020-09-16T19:45:16+02:00</time>
      </trkpt>
      <trkpt lat="45.66901" lon="6.27464">
        <ele>1428</ele>
        <time>2020-09-16T19:45:21+02:00</time>
      </trkpt>
      <trkpt lat="45.66908" lon="6.27447">
        <ele>1436</ele>
        <time>2020-09-16T19:45:26+02:00</time>
      </trkpt>
      <trkpt lat="45.66905" lon="6.27438">
        <ele>1437</ele>
        <time>2020-09-16T19:45:31+02:00</time>
      </trkpt>
      <trkpt lat="45.66898" lon="6.27409">
        <ele>1442</ele>
        <time>2020-09-16T19:45:36+02:00</time>
      </trkpt>
      <trkpt lat="45.66898" lon="6.27362">
        <ele>1450</ele>
        <time>2020-09-16T19:45:41+02:00</time>
      </trkpt>
      <trkpt lat="45.66901" lon="6.27347">
        <ele>1454</ele>
        <time>2020-09-16T19:45:46+02:00</time>
      </trkpt>
      <trkpt lat="45.669" lon="6.27311">
        <ele>1458</ele>
        <time>2020-09-16T19:45:51+02:00</time>
      </trkpt>
      <trkpt lat="45.669" lon="6.27287">
        <ele>1463</ele>
        <time>2020-09-16T19:45:56+02:00</time>
      </trkpt>
      <trkpt lat="45.66898" lon="6.27272">
        <ele>1466</ele>
        <time>2020-09-16T19:46:01+02:00</time>
      </trkpt>
      <trkpt lat="45.66898" lon="6.27254">
        <ele>1470</ele>
        <time>2020-09-16T19:46:06+02:00</time>
      </trkpt>
      <trkpt lat="45.66899" lon="6.27222">
        <ele>1479</ele>
        <time>2020-09-16T19:46:11+02:00</time>
      </trkpt>
      <trkpt lat="45.66904" lon="6.27193">
        <ele>1487</ele>
        <time>2020-09-16T19:46:16+02:00</time>
      </trkpt>
      <trkpt lat="45.66907" lon="6.27181">
        <ele>1490</ele>
        <time>2020-09-16T19:46:21+02:00</time>
      </trkpt>
      <trkpt lat="45.66909" lon="6.27168">
        <ele>1493</ele>
        <time>2020-09-16T19:46:26+02:00</time>
      </trkpt>
      <trkpt lat="45.66909" lon="6.27147">
        <ele>1498</ele>
        <time>2020-09-16T19:46:31+02:00</time>
      </trkpt>
      <trkpt lat="45.66907" lon="6.2713">
        <ele>1501</ele>
        <time>2020-09-16T19:46:36+02:00</time>
      </trkpt>
      <trkpt lat="45.66895" lon="6.2711">
        <ele>1503</ele>
        <time>2020-09-16T19:46:41+02:00</time>
      </trkpt>
      <trkpt lat="45.66893" lon="6.2709">
        <ele>1506</ele>
        <time>2020-09-16T19:46:46+02:00</time>
      </trkpt>
      <trkpt lat="45.66892" lon="6.27077">
        <ele>1509</ele>
        <time>2020-09-16T19:46:51+02:00</time>
      </trkpt>
      <trkpt lat="45.66888" lon="6.27056">
        <ele>1512</ele>
        <time>2020-09-16T19:46:56+02:00</time>
      </trkpt>
      <trkpt lat="45.66886" lon="6.27034">
        <ele>1516</ele>
        <time>2020-09-16T19:47:01+02:00</time>
      </trkpt>
      <trkpt lat="45.66886" lon="6.27017">
        <ele>1517</ele>
        <time>2020-09-16T19:47:06+02:00</time>
      </trkpt>
      <trkpt lat="45.66887" lon="6.26986">
        <ele>1519</ele>
        <time>2020-09-16T19:47:11+02:00</time>
      </trkpt>
      <trkpt lat="45.66888" lon="6.26956">
        <ele>1516</ele>
        <time>2020-09-16T19:47:16+02:00</time>
      </trkpt>
      <trkpt lat="45.66737" lon="6.26903">
        <ele>1545</ele>
        <time>2020-09-16T19:49:41+02:00</time>
      </trkpt>
      <trkpt lat="45.66737" lon="6.26903">
        <ele>1545</ele>
        <time>2020-09-16T19:49:41+02:00</time>
      </trkpt>
      <trkpt lat="45.66735" lon="6.26927">
        <ele>1550</ele>
        <time>2020-09-16T19:49:46+02:00</time>
      </trkpt>
      <trkpt lat="45.66728" lon="6.2693">
        <ele>1552</ele>
        <time>2020-09-16T19:49:51+02:00</time>
      </trkpt>
      <trkpt lat="45.66719" lon="6.26934">
        <ele>1556</ele>
        <time>2020-09-16T19:49:56+02:00</time>
      </trkpt>
      <trkpt lat="45.66714" lon="6.2694">
        <ele>1559</ele>
        <time>2020-09-16T19:50:01+02:00</time>
      </trkpt>
      <trkpt lat="45.66709" lon="6.26936">
        <ele>1559</ele>
        <time>2020-09-16T19:50:06+02:00</time>
      </trkpt>
      <trkpt lat="45.66703" lon="6.26945">
        <ele>1563</ele>
        <time>2020-09-16T19:50:11+02:00</time>
      </trkpt>
      <trkpt lat="45.66698" lon="6.26942">
        <ele>1564</ele>
        <time>2020-09-16T19:50:16+02:00</time>
      </trkpt>
      <trkpt lat="45.66691" lon="6.26934">
        <ele>1565</ele>
        <time>2020-09-16T19:50:21+02:00</time>
      </trkpt>
      <trkpt lat="45.66685" lon="6.26927">
        <ele>1565</ele>
        <time>2020-09-16T19:50:26+02:00</time>
      </trkpt>
      <trkpt lat="45.66671" lon="6.26924">
        <ele>1571</ele>
        <time>2020-09-16T19:50:31+02:00</time>
      </trkpt>
      <trkpt lat="45.66651" lon="6.26924">
        <ele>1579</ele>
        <time>2020-09-16T19:50:36+02:00</time>
      </trkpt>
      <trkpt lat="45.66643" lon="6.26923">
        <ele>1582</ele>
        <time>2020-09-16T19:50:41+02:00</time>
      </trkpt>
      <trkpt lat="45.66637" lon="6.26921">
        <ele>1584</ele>
        <time>2020-09-16T19:50:46+02:00</time>
      </trkpt>
      <trkpt lat="45.66623" lon="6.26921">
        <ele>1589</ele>
        <time>2020-09-16T19:50:51+02:00</time>
      </trkpt>
      <trkpt lat="45.66604" lon="6.26921">
        <ele>1597</ele>
        <time>2020-09-16T19:50:56+02:00</time>
      </trkpt>
      <trkpt lat="45.66584" lon="6.26925">
        <ele>1605</ele>
        <time>2020-09-16T19:51:01+02:00</time>
      </trkpt>
      <trkpt lat="45.66572" lon="6.2693">
        <ele>1607</ele>
        <time>2020-09-16T19:51:06+02:00</time>
      </trkpt>
      <trkpt lat="45.66567" lon="6.2693">
        <ele>1608</ele>
        <time>2020-09-16T19:51:11+02:00</time>
      </trkpt>
      <trkpt lat="45.66562" lon="6.26934">
        <ele>1609</ele>
        <time>2020-09-16T19:51:16+02:00</time>
      </trkpt>
      <trkpt lat="45.66553" lon="6.26933">
        <ele>1610</ele>
        <time>2020-09-16T19:51:21+02:00</time>
      </trkpt>
      <trkpt lat="45.66543" lon="6.26928">
        <ele>1610</ele>
        <time>2020-09-16T19:51:26+02:00</time>
      </trkpt>
      <trkpt lat="45.66526" lon="6.26914">
        <ele>1610</ele>
        <time>2020-09-16T19:51:31+02:00</time>
      </trkpt>
      <trkpt lat="45.66519" lon="6.26909">
        <ele>1611</ele>
        <time>2020-09-16T19:51:36+02:00</time>
      </trkpt>
      <trkpt lat="45.6651" lon="6.26903">
        <ele>1613</ele>
        <time>2020-09-16T19:51:41+02:00</time>
      </trkpt>
      <trkpt lat="45.66501" lon="6.26892">
        <ele>1616</ele>
        <time>2020-09-16T19:51:46+02:00</time>
      </trkpt>
      <trkpt lat="45.66499" lon="6.26887">
        <ele>1617</ele>
        <time>2020-09-16T19:51:51+02:00</time>
      </trkpt>
      <trkpt lat="45.66493" lon="6.26857">
        <ele>1614</ele>
        <time>2020-09-16T19:51:56+02:00</time>
      </trkpt>
      <trkpt lat="45.66484" lon="6.26839">
        <ele>1614</ele>
        <time>2020-09-16T19:52:01+02:00</time>
      </trkpt>
      <trkpt lat="45.66475" lon="6.26827">
        <ele>1616</ele>
        <time>2020-09-16T19:52:06+02:00</time>
      </trkpt>
      <trkpt lat="45.66468" lon="6.26822">
        <ele>1617</ele>
        <time>2020-09-16T19:52:11+02:00</time>
      </trkpt>
      <trkpt lat="45.6646" lon="6.26824">
        <ele>1619</ele>
        <time>2020-09-16T19:52:16+02:00</time>
      </trkpt>
      <trkpt lat="45.66455" lon="6.26827">
        <ele>1620</ele>
        <time>2020-09-16T19:52:21+02:00</time>
      </trkpt>
      <trkpt lat="45.66451" lon="6.26833">
        <ele>1621</ele>
        <time>2020-09-16T19:52:26+02:00</time>
      </trkpt>
      <trkpt lat="45.66453" lon="6.26849">
        <ele>1619</ele>
        <time>2020-09-16T19:52:31+02:00</time>
      </trkpt>
      <trkpt lat="45.66447" lon="6.26853">
        <ele>1618</ele>
        <time>2020-09-16T19:52:36+02:00</time>
      </trkpt>
      <trkpt lat="45.66445" lon="6.26852">
        <ele>1618</ele>
        <time>2020-09-16T19:52:41+02:00</time>
      </trkpt>
      <trkpt lat="45.66439" lon="6.26828">
        <ele>1623</ele>
        <time>2020-09-16T19:52:46+02:00</time>
      </trkpt>
      <trkpt lat="45.66431" lon="6.26809">
        <ele>1627</ele>
        <time>2020-09-16T19:52:51+02:00</time>
      </trkpt>
      <trkpt lat="45.66421" lon="6.26802">
        <ele>1631</ele>
        <time>2020-09-16T19:52:56+02:00</time>
      </trkpt>
      <trkpt lat="45.66411" lon="6.26795">
        <ele>1635</ele>
        <time>2020-09-16T19:53:01+02:00</time>
      </trkpt>
      <trkpt lat="45.66406" lon="6.26792">
        <ele>1637</ele>
        <time>2020-09-16T19:53:06+02:00</time>
      </trkpt>
      <trkpt lat="45.66397" lon="6.26772">
        <ele>1644</ele>
        <time>2020-09-16T19:53:11+02:00</time>
      </trkpt>
      <trkpt lat="45.66387" lon="6.26776">
        <ele>1650</ele>
        <time>2020-09-16T19:53:16+02:00</time>
      </trkpt>
      <trkpt lat="45.66382" lon="6.26774">
        <ele>1651</ele>
        <time>2020-09-16T19:53:21+02:00</time>
      </trkpt>
      <trkpt lat="45.66378" lon="6.26765">
        <ele>1654</ele>
        <time>2020-09-16T19:53:26+02:00</time>
      </trkpt>
      <trkpt lat="45.6638" lon="6.26756">
        <ele>1654</ele>
        <time>2020-09-16T19:53:31+02:00</time>
      </trkpt>
      <trkpt lat="45.66375" lon="6.26744">
        <ele>1657</ele>
        <time>2020-09-16T19:53:36+02:00</time>
      </trkpt>
      <trkpt lat="45.66369" lon="6.26743">
        <ele>1661</ele>
        <time>2020-09-16T19:53:41+02:00</time>
      </trkpt>
      <trkpt lat="45.66366" lon="6.26735">
        <ele>1663</ele>
        <time>2020-09-16T19:53:46+02:00</time>
      </trkpt>
      <trkpt lat="45.66357" lon="6.26727">
        <ele>1669</ele>
        <time>2020-09-16T19:53:51+02:00</time>
      </trkpt>
      <trkpt lat="45.66344" lon="6.26718">
        <ele>1676</ele>
        <time>2020-09-16T19:53:56+02:00</time>
      </trkpt>
      <trkpt lat="45.6633" lon="6.26713">
        <ele>1681</ele>
        <time>2020-09-16T19:54:01+02:00</time>
      </trkpt>
      <trkpt lat="45.66327" lon="6.2672">
        <ele>1682</ele>
        <time>2020-09-16T19:54:06+02:00</time>
      </trkpt>
      <trkpt lat="45.66319" lon="6.26728">
        <ele>1680</ele>
        <time>2020-09-16T19:54:11+02:00</time>
      </trkpt>
      <trkpt lat="45.6631" lon="6.26727">
        <ele>1680</ele>
        <time>2020-09-16T19:54:16+02:00</time>
      </trkpt>
      <trkpt lat="45.66302" lon="6.26719">
        <ele>1681</ele>
        <time>2020-09-16T19:54:21+02:00</time>
      </trkpt>
      <trkpt lat="45.66283" lon="6.26693">
        <ele>1686</ele>
        <time>2020-09-16T19:54:26+02:00</time>
      </trkpt>
      <trkpt lat="45.66251" lon="6.26655">
        <ele>1690</ele>
        <time>2020-09-16T19:54:31+02:00</time>
      </trkpt>
      <trkpt lat="45.66229" lon="6.26634">
        <ele>1691</ele>
        <time>2020-09-16T19:54:36+02:00</time>
      </trkpt>
      <trkpt lat="45.66205" lon="6.26604">
        <ele>1702</ele>
        <time>2020-09-16T19:54:41+02:00</time>
      </trkpt>
      <trkpt lat="45.66194" lon="6.2659">
        <ele>1707</ele>
        <time>2020-09-16T19:54:46+02:00</time>
      </trkpt>
      <trkpt lat="45.66179" lon="6.26566">
        <ele>1712</ele>
        <time>2020-09-16T19:54:51+02:00</time>
      </trkpt>
      <trkpt lat="45.66162" lon="6.26552">
        <ele>1718</ele>
        <time>2020-09-16T19:54:56+02:00</time>
      </trkpt>
      <trkpt lat="45.66152" lon="6.26535">
        <ele>1723</ele>
        <time>2020-09-16T19:55:01+02:00</time>
      </trkpt>
      <trkpt lat="45.6615" lon="6.26529">
        <ele>1725</ele>
        <time>2020-09-16T19:55:06+02:00</time>
      </trkpt>
      <trkpt lat="45.66145" lon="6.26511">
        <ele>1725</ele>
        <time>2020-09-16T19:55:11+02:00</time>
      </trkpt>
      <trkpt lat="45.66142" lon="6.265">
        <ele>1725</ele>
        <time>2020-09-16T19:55:16+02:00</time>
      </trkpt>
      <trkpt lat="45.66129" lon="6.26487">
        <ele>1725</ele>
        <time>2020-09-16T19:55:21+02:00</time>
      </trkpt>
      <trkpt lat="45.66108" lon="6.26468">
        <ele>1727</ele>
        <time>2020-09-16T19:55:26+02:00</time>
      </trkpt>
      <trkpt lat="45.66099" lon="6.26453">
        <ele>1724</ele>
        <time>2020-09-16T19:55:31+02:00</time>
      </trkpt>
      <trkpt lat="45.66091" lon="6.26446">
        <ele>1725</ele>
        <time>2020-09-16T19:55:36+02:00</time>
      </trkpt>
      <trkpt lat="45.66074" lon="6.26431">
        <ele>1725</ele>
        <time>2020-09-16T19:55:41+02:00</time>
      </trkpt>
      <trkpt lat="45.66055" lon="6.2642">
        <ele>1728</ele>
        <time>2020-09-16T19:55:46+02:00</time>
      </trkpt>
      <trkpt lat="45.66051" lon="6.26413">
        <ele>1726</ele>
        <time>2020-09-16T19:55:51+02:00</time>
      </trkpt>
      <trkpt lat="45.66043" lon="6.26399">
        <ele>1722</ele>
        <time>2020-09-16T19:55:56+02:00</time>
      </trkpt>
      <trkpt lat="45.66032" lon="6.2639">
        <ele>1722</ele>
        <time>2020-09-16T19:56:01+02:00</time>
      </trkpt>
      <trkpt lat="45.66021" lon="6.26383">
        <ele>1724</ele>
        <time>2020-09-16T19:56:06+02:00</time>
      </trkpt>
      <trkpt lat="45.6598" lon="6.26346">
        <ele>1726</ele>
        <time>2020-09-16T19:56:11+02:00</time>
      </trkpt>
      <trkpt lat="45.65947" lon="6.26324">
        <ele>1730</ele>
        <time>2020-09-16T19:56:16+02:00</time>
      </trkpt>
      <trkpt lat="45.6593" lon="6.26314">
        <ele>1730</ele>
        <time>2020-09-16T19:56:21+02:00</time>
      </trkpt>
      <trkpt lat="45.65904" lon="6.26311">
        <ele>1734</ele>
        <time>2020-09-16T19:56:26+02:00</time>
      </trkpt>
      <trkpt lat="45.65883" lon="6.26312">
        <ele>1736</ele>
        <time>2020-09-16T19:56:31+02:00</time>
      </trkpt>
      <trkpt lat="45.65865" lon="6.26314">
        <ele>1737</ele>
        <time>2020-09-16T19:56:36+02:00</time>
      </trkpt>
      <trkpt lat="45.65841" lon="6.26315">
        <ele>1737</ele>
        <time>2020-09-16T19:56:41+02:00</time>
      </trkpt>
      <trkpt lat="45.65802" lon="6.26312">
        <ele>1735</ele>
        <time>2020-09-16T19:56:46+02:00</time>
      </trkpt>
      <trkpt lat="45.65744" lon="6.26311">
        <ele>1728</ele>
        <time>2020-09-16T19:56:51+02:00</time>
      </trkpt>
      <trkpt lat="45.65699" lon="6.26308">
        <ele>1720</ele>
        <time>2020-09-16T19:56:56+02:00</time>
      </trkpt>
      <trkpt lat="45.6566" lon="6.26308">
        <ele>1718</ele>
        <time>2020-09-16T19:57:01+02:00</time>
      </trkpt>
      <trkpt lat="45.65635" lon="6.2631">
        <ele>1718</ele>
        <time>2020-09-16T19:57:06+02:00</time>
      </trkpt>
      <trkpt lat="45.65619" lon="6.2631">
        <ele>1718</ele>
        <time>2020-09-16T19:57:11+02:00</time>
      </trkpt>
      <trkpt lat="45.65597" lon="6.26307">
        <ele>1717</ele>
        <time>2020-09-16T19:57:16+02:00</time>
      </trkpt>
      <trkpt lat="45.65584" lon="6.26305">
        <ele>1717</ele>
        <time>2020-09-16T19:57:21+02:00</time>
      </trkpt>
      <trkpt lat="45.65575" lon="6.26308">
        <ele>1719</ele>
        <time>2020-09-16T19:57:26+02:00</time>
      </trkpt>
      <trkpt lat="45.65558" lon="6.26315">
        <ele>1723</ele>
        <time>2020-09-16T19:57:31+02:00</time>
      </trkpt>
      <trkpt lat="45.6553" lon="6.26326">
        <ele>1725</ele>
        <time>2020-09-16T19:57:36+02:00</time>
      </trkpt>
      <trkpt lat="45.65516" lon="6.26333">
        <ele>1726</ele>
        <time>2020-09-16T19:57:41+02:00</time>
      </trkpt>
      <trkpt lat="45.65506" lon="6.26336">
        <ele>1726</ele>
        <time>2020-09-16T19:57:46+02:00</time>
      </trkpt>
      <trkpt lat="45.65488" lon="6.26328">
        <ele>1728</ele>
        <time>2020-09-16T19:57:51+02:00</time>
      </trkpt>
      <trkpt lat="45.65466" lon="6.26316">
        <ele>1731</ele>
        <time>2020-09-16T19:57:56+02:00</time>
      </trkpt>
      <trkpt lat="45.65456" lon="6.26305">
        <ele>1733</ele>
        <time>2020-09-16T19:58:01+02:00</time>
      </trkpt>
      <trkpt lat="45.6544" lon="6.26298">
        <ele>1734</ele>
        <time>2020-09-16T19:58:06+02:00</time>
      </trkpt>
      <trkpt lat="45.65429" lon="6.26288">
        <ele>1736</ele>
        <time>2020-09-16T19:58:11+02:00</time>
      </trkpt>
      <trkpt lat="45.65422" lon="6.26276">
        <ele>1738</ele>
        <time>2020-09-16T19:58:16+02:00</time>
      </trkpt>
      <trkpt lat="45.65409" lon="6.26256">
        <ele>1738</ele>
        <time>2020-09-16T19:58:21+02:00</time>
      </trkpt>
      <trkpt lat="45.65394" lon="6.26244">
        <ele>1740</ele>
        <time>2020-09-16T19:58:26+02:00</time>
      </trkpt>
      <trkpt lat="45.65386" lon="6.26238">
        <ele>1740</ele>
        <time>2020-09-16T19:58:31+02:00</time>
      </trkpt>
      <trkpt lat="45.65382" lon="6.26229">
        <ele>1741</ele>
        <time>2020-09-16T19:58:36+02:00</time>
      </trkpt>
      <trkpt lat="45.65377" lon="6.26218">
        <ele>1742</ele>
        <time>2020-09-16T19:58:41+02:00</time>
      </trkpt>
      <trkpt lat="45.65359" lon="6.26212">
        <ele>1744</ele>
        <time>2020-09-16T19:58:46+02:00</time>
      </trkpt>
      <trkpt lat="45.65324" lon="6.26206">
        <ele>1747</ele>
        <time>2020-09-16T19:58:51+02:00</time>
      </trkpt>
      <trkpt lat="45.65279" lon="6.26195">
        <ele>1750</ele>
        <time>2020-09-16T19:58:56+02:00</time>
      </trkpt>
      <trkpt lat="45.6526" lon="6.26195">
        <ele>1753</ele>
        <time>2020-09-16T19:59:01+02:00</time>
      </trkpt>
      <trkpt lat="45.6524" lon="6.2619">
        <ele>1757</ele>
        <time>2020-09-16T19:59:06+02:00</time>
      </trkpt>
      <trkpt lat="45.65211" lon="6.26183">
        <ele>1765</ele>
        <time>2020-09-16T19:59:11+02:00</time>
      </trkpt>
      <trkpt lat="45.65183" lon="6.26168">
        <ele>1774</ele>
        <time>2020-09-16T19:59:16+02:00</time>
      </trkpt>
      <trkpt lat="45.65163" lon="6.26168">
        <ele>1778</ele>
        <time>2020-09-16T19:59:21+02:00</time>
      </trkpt>
      <trkpt lat="45.65137" lon="6.26174">
        <ele>1780</ele>
        <time>2020-09-16T19:59:26+02:00</time>
      </trkpt>
      <trkpt lat="45.65127" lon="6.26179">
        <ele>1781</ele>
        <time>2020-09-16T19:59:31+02:00</time>
      </trkpt>
      <trkpt lat="45.65122" lon="6.26184">
        <ele>1781</ele>
        <time>2020-09-16T19:59:36+02:00</time>
      </trkpt>
      <trkpt lat="45.6511" lon="6.26196">
        <ele>1783</ele>
        <time>2020-09-16T19:59:41+02:00</time>
      </trkpt>
      <trkpt lat="45.65097" lon="6.26201">
        <ele>1786</ele>
        <time>2020-09-16T19:59:46+02:00</time>
      </trkpt>
      <trkpt lat="45.65083" lon="6.2621">
        <ele>1789</ele>
        <time>2020-09-16T19:59:51+02:00</time>
      </trkpt>
      <trkpt lat="45.65074" lon="6.26216">
        <ele>1791</ele>
        <time>2020-09-16T19:59:56+02:00</time>
      </trkpt>
      <trkpt lat="45.65071" lon="6.26224">
        <ele>1792</ele>
        <time>2020-09-16T20:00:01+02:00</time>
      </trkpt>
      <trkpt lat="45.65058" lon="6.26231">
        <ele>1795</ele>
        <time>2020-09-16T20:00:06+02:00</time>
      </trkpt>
      <trkpt lat="45.65048" lon="6.26231">
        <ele>1797</ele>
        <time>2020-09-16T20:00:11+02:00</time>
      </trkpt>
      <trkpt lat="45.65036" lon="6.26237">
        <ele>1799</ele>
        <time>2020-09-16T20:00:16+02:00</time>
      </trkpt>
      <trkpt lat="45.65028" lon="6.26238">
        <ele>1800</ele>
        <time>2020-09-16T20:00:21+02:00</time>
      </trkpt>
      <trkpt lat="45.65018" lon="6.26235">
        <ele>1800</ele>
        <time>2020-09-16T20:00:26+02:00</time>
      </trkpt>
      <trkpt lat="45.65008" lon="6.26229">
        <ele>1800</ele>
        <time>2020-09-16T20:00:31+02:00</time>
      </trkpt>
      <trkpt lat="45.64979" lon="6.2622">
        <ele>1800</ele>
        <time>2020-09-16T20:00:36+02:00</time>
      </trkpt>
      <trkpt lat="45.64961" lon="6.26211">
        <ele>1800</ele>
        <time>2020-09-16T20:00:41+02:00</time>
      </trkpt>
      <trkpt lat="45.64953" lon="6.26203">
        <ele>1800</ele>
        <time>2020-09-16T20:00:46+02:00</time>
      </trkpt>
      <trkpt lat="45.64948" lon="6.26197">
        <ele>1800</ele>
        <time>2020-09-16T20:00:51+02:00</time>
      </trkpt>
      <trkpt lat="45.64935" lon="6.26186">
        <ele>1799</ele>
        <time>2020-09-16T20:00:56+02:00</time>
      </trkpt>
      <trkpt lat="45.64926" lon="6.26174">
        <ele>1798</ele>
        <time>2020-09-16T20:01:01+02:00</time>
      </trkpt>
      <trkpt lat="45.64925" lon="6.26169">
        <ele>1798</ele>
        <time>2020-09-16T20:01:06+02:00</time>
      </trkpt>
      <trkpt lat="45.6492" lon="6.26167">
        <ele>1799</ele>
        <time>2020-09-16T20:01:11+02:00</time>
      </trkpt>
      <trkpt lat="45.64909" lon="6.26144">
        <ele>1794</ele>
        <time>2020-09-16T20:01:16+02:00</time>
      </trkpt>
      <trkpt lat="45.64898" lon="6.26123">
        <ele>1794</ele>
        <time>2020-09-16T20:01:21+02:00</time>
      </trkpt>
      <trkpt lat="45.64891" lon="6.26109">
        <ele>1796</ele>
        <time>2020-09-16T20:01:26+02:00</time>
      </trkpt>
      <trkpt lat="45.64887" lon="6.26097">
        <ele>1797</ele>
        <time>2020-09-16T20:01:31+02:00</time>
      </trkpt>
      <trkpt lat="45.64885" lon="6.26076">
        <ele>1797</ele>
        <time>2020-09-16T20:01:36+02:00</time>
      </trkpt>
      <trkpt lat="45.64883" lon="6.26053">
        <ele>1799</ele>
        <time>2020-09-16T20:01:41+02:00</time>
      </trkpt>
      <trkpt lat="45.6488" lon="6.26026">
        <ele>1800</ele>
        <time>2020-09-16T20:01:46+02:00</time>
      </trkpt>
      <trkpt lat="45.64878" lon="6.26022">
        <ele>1797</ele>
        <time>2020-09-16T20:01:51+02:00</time>
      </trkpt>
      <trkpt lat="45.64879" lon="6.2604">
        <ele>1800</ele>
        <time>2020-09-16T20:01:56+02:00</time>
      </trkpt>
      <trkpt lat="45.64882" lon="6.26061">
        <ele>1798</ele>
        <time>2020-09-16T20:02:01+02:00</time>
      </trkpt>
      <trkpt lat="45.64885" lon="6.26092">
        <ele>1796</ele>
        <time>2020-09-16T20:02:06+02:00</time>
      </trkpt>
      <trkpt lat="45.64887" lon="6.26102">
        <ele>1797</ele>
        <time>2020-09-16T20:02:11+02:00</time>
      </trkpt>
      <trkpt lat="45.64891" lon="6.26115">
        <ele>1796</ele>
        <time>2020-09-16T20:02:16+02:00</time>
      </trkpt>
      <trkpt lat="45.64904" lon="6.26139">
        <ele>1794</ele>
        <time>2020-09-16T20:02:21+02:00</time>
      </trkpt>
      <trkpt lat="45.64913" lon="6.26158">
        <ele>1796</ele>
        <time>2020-09-16T20:02:26+02:00</time>
      </trkpt>
      <trkpt lat="45.64918" lon="6.26167">
        <ele>1799</ele>
        <time>2020-09-16T20:02:31+02:00</time>
      </trkpt>
      <trkpt lat="45.64924" lon="6.2617">
        <ele>1798</ele>
        <time>2020-09-16T20:02:36+02:00</time>
      </trkpt>
      <trkpt lat="45.64927" lon="6.26177">
        <ele>1798</ele>
        <time>2020-09-16T20:02:41+02:00</time>
      </trkpt>
      <trkpt lat="45.64935" lon="6.26189">
        <ele>1799</ele>
        <time>2020-09-16T20:02:46+02:00</time>
      </trkpt>
      <trkpt lat="45.64949" lon="6.26201">
        <ele>1800</ele>
        <time>2020-09-16T20:02:51+02:00</time>
      </trkpt>
      <trkpt lat="45.64956" lon="6.26207">
        <ele>1799</ele>
        <time>2020-09-16T20:02:56+02:00</time>
      </trkpt>
      <trkpt lat="45.64964" lon="6.26212">
        <ele>1800</ele>
        <time>2020-09-16T20:03:01+02:00</time>
      </trkpt>
      <trkpt lat="45.64987" lon="6.26223">
        <ele>1800</ele>
        <time>2020-09-16T20:03:06+02:00</time>
      </trkpt>
      <trkpt lat="45.6502" lon="6.26233">
        <ele>1800</ele>
        <time>2020-09-16T20:03:11+02:00</time>
      </trkpt>
      <trkpt lat="45.65026" lon="6.26238">
        <ele>1800</ele>
        <time>2020-09-16T20:03:16+02:00</time>
      </trkpt>
      <trkpt lat="45.65031" lon="6.26238">
        <ele>1799</ele>
        <time>2020-09-16T20:03:21+02:00</time>
      </trkpt>
      <trkpt lat="45.65044" lon="6.26233">
        <ele>1798</ele>
        <time>2020-09-16T20:03:26+02:00</time>
      </trkpt>
      <trkpt lat="45.65056" lon="6.26229">
        <ele>1796</ele>
        <time>2020-09-16T20:03:31+02:00</time>
      </trkpt>
      <trkpt lat="45.65068" lon="6.26223">
        <ele>1793</ele>
        <time>2020-09-16T20:03:36+02:00</time>
      </trkpt>
      <trkpt lat="45.65069" lon="6.26222">
        <ele>1793</ele>
        <time>2020-09-16T20:03:41+02:00</time>
      </trkpt>
      <trkpt lat="45.65076" lon="6.26214">
        <ele>1790</ele>
        <time>2020-09-16T20:03:46+02:00</time>
      </trkpt>
      <trkpt lat="45.65087" lon="6.26207">
        <ele>1788</ele>
        <time>2020-09-16T20:03:51+02:00</time>
      </trkpt>
      <trkpt lat="45.65096" lon="6.26201">
        <ele>1786</ele>
        <time>2020-09-16T20:03:56+02:00</time>
      </trkpt>
      <trkpt lat="45.65112" lon="6.26196">
        <ele>1783</ele>
        <time>2020-09-16T20:04:01+02:00</time>
      </trkpt>
      <trkpt lat="45.65129" lon="6.26178">
        <ele>1780</ele>
        <time>2020-09-16T20:04:06+02:00</time>
      </trkpt>
      <trkpt lat="45.65144" lon="6.26174">
        <ele>1779</ele>
        <time>2020-09-16T20:04:11+02:00</time>
      </trkpt>
      <trkpt lat="45.6517" lon="6.26168">
        <ele>1777</ele>
        <time>2020-09-16T20:04:16+02:00</time>
      </trkpt>
      <trkpt lat="45.65181" lon="6.26169">
        <ele>1774</ele>
        <time>2020-09-16T20:04:21+02:00</time>
      </trkpt>
      <trkpt lat="45.65202" lon="6.26179">
        <ele>1767</ele>
        <time>2020-09-16T20:04:26+02:00</time>
      </trkpt>
      <trkpt lat="45.65233" lon="6.26188">
        <ele>1759</ele>
        <time>2020-09-16T20:04:31+02:00</time>
      </trkpt>
      <trkpt lat="45.65264" lon="6.26192">
        <ele>1752</ele>
        <time>2020-09-16T20:04:36+02:00</time>
      </trkpt>
      <trkpt lat="45.65282" lon="6.26198">
        <ele>1749</ele>
        <time>2020-09-16T20:04:41+02:00</time>
      </trkpt>
      <trkpt lat="45.65271" lon="6.26204">
        <ele>1750</ele>
        <time>2020-09-16T20:04:46+02:00</time>
      </trkpt>
      <trkpt lat="45.65264" lon="6.26208">
        <ele>1750</ele>
        <time>2020-09-16T20:04:51+02:00</time>
      </trkpt>
      <trkpt lat="45.65253" lon="6.26217">
        <ele>1748</ele>
        <time>2020-09-16T20:04:56+02:00</time>
      </trkpt>
      <trkpt lat="45.65236" lon="6.26226">
        <ele>1747</ele>
        <time>2020-09-16T20:05:01+02:00</time>
      </trkpt>
      <trkpt lat="45.65222" lon="6.26236">
        <ele>1746</ele>
        <time>2020-09-16T20:05:06+02:00</time>
      </trkpt>
      <trkpt lat="45.65211" lon="6.26242">
        <ele>1747</ele>
        <time>2020-09-16T20:05:11+02:00</time>
      </trkpt>
      <trkpt lat="45.65202" lon="6.26251">
        <ele>1746</ele>
        <time>2020-09-16T20:05:16+02:00</time>
      </trkpt>
      <trkpt lat="45.65192" lon="6.26262">
        <ele>1747</ele>
        <time>2020-09-16T20:05:21+02:00</time>
      </trkpt>
      <trkpt lat="45.65185" lon="6.26263">
        <ele>1748</ele>
        <time>2020-09-16T20:05:26+02:00</time>
      </trkpt>
      <trkpt lat="45.65181" lon="6.26266">
        <ele>1749</ele>
        <time>2020-09-16T20:05:31+02:00</time>
      </trkpt>
      <trkpt lat="45.65175" lon="6.26271">
        <ele>1749</ele>
        <time>2020-09-16T20:05:36+02:00</time>
      </trkpt>
      <trkpt lat="45.65168" lon="6.26275">
        <ele>1750</ele>
        <time>2020-09-16T20:05:41+02:00</time>
      </trkpt>
      <trkpt lat="45.65161" lon="6.2628">
        <ele>1750</ele>
        <time>2020-09-16T20:05:46+02:00</time>
      </trkpt>
      <trkpt lat="45.65153" lon="6.26286">
        <ele>1751</ele>
        <time>2020-09-16T20:05:51+02:00</time>
      </trkpt>
      <trkpt lat="45.65148" lon="6.26288">
        <ele>1752</ele>
        <time>2020-09-16T20:05:56+02:00</time>
      </trkpt>
      <trkpt lat="45.65139" lon="6.26299">
        <ele>1753</ele>
        <time>2020-09-16T20:06:01+02:00</time>
      </trkpt>
      <trkpt lat="45.65132" lon="6.26301">
        <ele>1754</ele>
        <time>2020-09-16T20:06:06+02:00</time>
      </trkpt>
      <trkpt lat="45.6513" lon="6.26304">
        <ele>1754</ele>
        <time>2020-09-16T20:06:11+02:00</time>
      </trkpt>
      <trkpt lat="45.65136" lon="6.26308">
        <ele>1752</ele>
        <time>2020-09-16T20:06:16+02:00</time>
      </trkpt>
      <trkpt lat="45.65146" lon="6.26304">
        <ele>1751</ele>
        <time>2020-09-16T20:06:21+02:00</time>
      </trkpt>
      <trkpt lat="45.65157" lon="6.26308">
        <ele>1747</ele>
        <time>2020-09-16T20:06:26+02:00</time>
      </trkpt>
      <trkpt lat="45.65171" lon="6.26323">
        <ele>1742</ele>
        <time>2020-09-16T20:06:31+02:00</time>
      </trkpt>
      <trkpt lat="45.65178" lon="6.26329">
        <ele>1739</ele>
        <time>2020-09-16T20:06:36+02:00</time>
      </trkpt>
      <trkpt lat="45.65187" lon="6.26331">
        <ele>1738</ele>
        <time>2020-09-16T20:06:41+02:00</time>
      </trkpt>
      <trkpt lat="45.65213" lon="6.26328">
        <ele>1732</ele>
        <time>2020-09-16T20:06:46+02:00</time>
      </trkpt>
      <trkpt lat="45.65236" lon="6.26323">
        <ele>1725</ele>
        <time>2020-09-16T20:06:51+02:00</time>
      </trkpt>
      <trkpt lat="45.65255" lon="6.26308">
        <ele>1724</ele>
        <time>2020-09-16T20:06:56+02:00</time>
      </trkpt>
      <trkpt lat="45.65266" lon="6.26315">
        <ele>1720</ele>
        <time>2020-09-16T20:07:01+02:00</time>
      </trkpt>
      <trkpt lat="45.65288" lon="6.26326">
        <ele>1713</ele>
        <time>2020-09-16T20:07:06+02:00</time>
      </trkpt>
      <trkpt lat="45.65312" lon="6.26335">
        <ele>1705</ele>
        <time>2020-09-16T20:07:11+02:00</time>
      </trkpt>
      <trkpt lat="45.65326" lon="6.26339">
        <ele>1701</ele>
        <time>2020-09-16T20:07:16+02:00</time>
      </trkpt>
      <trkpt lat="45.65339" lon="6.26349">
        <ele>1697</ele>
        <time>2020-09-16T20:07:21+02:00</time>
      </trkpt>
      <trkpt lat="45.65352" lon="6.26358">
        <ele>1693</ele>
        <time>2020-09-16T20:07:26+02:00</time>
      </trkpt>
      <trkpt lat="45.65369" lon="6.26365">
        <ele>1690</ele>
        <time>2020-09-16T20:07:31+02:00</time>
      </trkpt>
      <trkpt lat="45.65377" lon="6.26383">
        <ele>1686</ele>
        <time>2020-09-16T20:07:36+02:00</time>
      </trkpt>
      <trkpt lat="45.65388" lon="6.26411">
        <ele>1678</ele>
        <time>2020-09-16T20:07:41+02:00</time>
      </trkpt>
      <trkpt lat="45.65403" lon="6.26431">
        <ele>1675</ele>
        <time>2020-09-16T20:07:46+02:00</time>
      </trkpt>
      <trkpt lat="45.65424" lon="6.26454">
        <ele>1671</ele>
        <time>2020-09-16T20:07:51+02:00</time>
      </trkpt>
      <trkpt lat="45.65435" lon="6.26465">
        <ele>1669</ele>
        <time>2020-09-16T20:07:56+02:00</time>
      </trkpt>
      <trkpt lat="45.65436" lon="6.26469">
        <ele>1668</ele>
        <time>2020-09-16T20:08:01+02:00</time>
      </trkpt>
      <trkpt lat="45.65445" lon="6.26476">
        <ele>1669</ele>
        <time>2020-09-16T20:08:06+02:00</time>
      </trkpt>
      <trkpt lat="45.65454" lon="6.26487">
        <ele>1667</ele>
        <time>2020-09-16T20:08:11+02:00</time>
      </trkpt>
      <trkpt lat="45.65457" lon="6.26493">
        <ele>1666</ele>
        <time>2020-09-16T20:08:16+02:00</time>
      </trkpt>
      <trkpt lat="45.65465" lon="6.26498">
        <ele>1666</ele>
        <time>2020-09-16T20:08:21+02:00</time>
      </trkpt>
      <trkpt lat="45.6547" lon="6.26507">
        <ele>1664</ele>
        <time>2020-09-16T20:08:26+02:00</time>
      </trkpt>
      <trkpt lat="45.6548" lon="6.26525">
        <ele>1661</ele>
        <time>2020-09-16T20:08:31+02:00</time>
      </trkpt>
      <trkpt lat="45.65489" lon="6.26542">
        <ele>1657</ele>
        <time>2020-09-16T20:08:36+02:00</time>
      </trkpt>
      <trkpt lat="45.65498" lon="6.26553">
        <ele>1657</ele>
        <time>2020-09-16T20:08:41+02:00</time>
      </trkpt>
      <trkpt lat="45.65507" lon="6.26573">
        <ele>1651</ele>
        <time>2020-09-16T20:08:46+02:00</time>
      </trkpt>
      <trkpt lat="45.65509" lon="6.26578">
        <ele>1650</ele>
        <time>2020-09-16T20:08:51+02:00</time>
      </trkpt>
      <trkpt lat="45.65524" lon="6.26592">
        <ele>1649</ele>
        <time>2020-09-16T20:08:56+02:00</time>
      </trkpt>
      <trkpt lat="45.65534" lon="6.26611">
        <ele>1645</ele>
        <time>2020-09-16T20:09:01+02:00</time>
      </trkpt>
      <trkpt lat="45.65545" lon="6.26632">
        <ele>1641</ele>
        <time>2020-09-16T20:09:06+02:00</time>
      </trkpt>
      <trkpt lat="45.65546" lon="6.26641">
        <ele>1639</ele>
        <time>2020-09-16T20:09:11+02:00</time>
      </trkpt>
      <trkpt lat="45.65551" lon="6.26645">
        <ele>1639</ele>
        <time>2020-09-16T20:09:16+02:00</time>
      </trkpt>
      <trkpt lat="45.65554" lon="6.26653">
        <ele>1637</ele>
        <time>2020-09-16T20:09:21+02:00</time>
      </trkpt>
      <trkpt lat="45.65559" lon="6.26663">
        <ele>1633</ele>
        <time>2020-09-16T20:09:26+02:00</time>
      </trkpt>
      <trkpt lat="45.65569" lon="6.26678">
        <ele>1630</ele>
        <time>2020-09-16T20:09:31+02:00</time>
      </trkpt>
      <trkpt lat="45.6557" lon="6.26688">
        <ele>1627</ele>
        <time>2020-09-16T20:09:36+02:00</time>
      </trkpt>
      <trkpt lat="45.65565" lon="6.26699">
        <ele>1624</ele>
        <time>2020-09-16T20:09:41+02:00</time>
      </trkpt>
      <trkpt lat="45.65563" lon="6.26712">
        <ele>1620</ele>
        <time>2020-09-16T20:09:46+02:00</time>
      </trkpt>
      <trkpt lat="45.65565" lon="6.26729">
        <ele>1616</ele>
        <time>2020-09-16T20:09:51+02:00</time>
      </trkpt>
      <trkpt lat="45.65566" lon="6.26761">
        <ele>1609</ele>
        <time>2020-09-16T20:09:56+02:00</time>
      </trkpt>
      <trkpt lat="45.65564" lon="6.26775">
        <ele>1605</ele>
        <time>2020-09-16T20:10:01+02:00</time>
      </trkpt>
      <trkpt lat="45.6556" lon="6.26788">
        <ele>1602</ele>
        <time>2020-09-16T20:10:06+02:00</time>
      </trkpt>
      <trkpt lat="45.6556" lon="6.268">
        <ele>1600</ele>
        <time>2020-09-16T20:10:11+02:00</time>
      </trkpt>
      <trkpt lat="45.65558" lon="6.26827">
        <ele>1595</ele>
        <time>2020-09-16T20:10:16+02:00</time>
      </trkpt>
      <trkpt lat="45.65556" lon="6.26833">
        <ele>1594</ele>
        <time>2020-09-16T20:10:21+02:00</time>
      </trkpt>
      <trkpt lat="45.65554" lon="6.2685">
        <ele>1591</ele>
        <time>2020-09-16T20:10:26+02:00</time>
      </trkpt>
      <trkpt lat="45.65545" lon="6.26866">
        <ele>1586</ele>
        <time>2020-09-16T20:10:31+02:00</time>
      </trkpt>
      <trkpt lat="45.65555" lon="6.26871">
        <ele>1588</ele>
        <time>2020-09-16T20:10:36+02:00</time>
      </trkpt>
      <trkpt lat="45.65565" lon="6.26873">
        <ele>1586</ele>
        <time>2020-09-16T20:10:41+02:00</time>
      </trkpt>
      <trkpt lat="45.65575" lon="6.26867">
        <ele>1585</ele>
        <time>2020-09-16T20:10:46+02:00</time>
      </trkpt>
      <trkpt lat="45.65583" lon="6.26862">
        <ele>1585</ele>
        <time>2020-09-16T20:10:51+02:00</time>
      </trkpt>
      <trkpt lat="45.65603" lon="6.26841">
        <ele>1579</ele>
        <time>2020-09-16T20:10:56+02:00</time>
      </trkpt>
      <trkpt lat="45.65623" lon="6.26819">
        <ele>1577</ele>
        <time>2020-09-16T20:11:01+02:00</time>
      </trkpt>
      <trkpt lat="45.65638" lon="6.268">
        <ele>1577</ele>
        <time>2020-09-16T20:11:06+02:00</time>
      </trkpt>
      <trkpt lat="45.65657" lon="6.26788">
        <ele>1576</ele>
        <time>2020-09-16T20:11:11+02:00</time>
      </trkpt>
      <trkpt lat="45.65678" lon="6.26779">
        <ele>1575</ele>
        <time>2020-09-16T20:11:16+02:00</time>
      </trkpt>
      <trkpt lat="45.65688" lon="6.26776">
        <ele>1575</ele>
        <time>2020-09-16T20:11:21+02:00</time>
      </trkpt>
      <trkpt lat="45.65698" lon="6.26773">
        <ele>1575</ele>
        <time>2020-09-16T20:11:26+02:00</time>
      </trkpt>
      <trkpt lat="45.65714" lon="6.26775">
        <ele>1572</ele>
        <time>2020-09-16T20:11:31+02:00</time>
      </trkpt>
      <trkpt lat="45.65728" lon="6.26769">
        <ele>1573</ele>
        <time>2020-09-16T20:11:36+02:00</time>
      </trkpt>
      <trkpt lat="45.6574" lon="6.26769">
        <ele>1571</ele>
        <time>2020-09-16T20:11:41+02:00</time>
      </trkpt>
      <trkpt lat="45.6575" lon="6.26768">
        <ele>1570</ele>
        <time>2020-09-16T20:11:46+02:00</time>
      </trkpt>
      <trkpt lat="45.65768" lon="6.26765">
        <ele>1568</ele>
        <time>2020-09-16T20:11:51+02:00</time>
      </trkpt>
      <trkpt lat="45.65786" lon="6.26755">
        <ele>1567</ele>
        <time>2020-09-16T20:11:56+02:00</time>
      </trkpt>
      <trkpt lat="45.65799" lon="6.26758">
        <ele>1564</ele>
        <time>2020-09-16T20:12:01+02:00</time>
      </trkpt>
      <trkpt lat="45.6582" lon="6.2674">
        <ele>1571</ele>
        <time>2020-09-16T20:12:06+02:00</time>
      </trkpt>
      <trkpt lat="45.65847" lon="6.26751">
        <ele>1566</ele>
        <time>2020-09-16T20:12:11+02:00</time>
      </trkpt>
      <trkpt lat="45.65853" lon="6.2675">
        <ele>1566</ele>
        <time>2020-09-16T20:12:16+02:00</time>
      </trkpt>
      <trkpt lat="45.65877" lon="6.26727">
        <ele>1571</ele>
        <time>2020-09-16T20:12:21+02:00</time>
      </trkpt>
      <trkpt lat="45.65891" lon="6.26723">
        <ele>1568</ele>
        <time>2020-09-16T20:12:26+02:00</time>
      </trkpt>
      <trkpt lat="45.65906" lon="6.26733">
        <ele>1565</ele>
        <time>2020-09-16T20:12:31+02:00</time>
      </trkpt>
      <trkpt lat="45.65938" lon="6.26756">
        <ele>1563</ele>
        <time>2020-09-16T20:12:36+02:00</time>
      </trkpt>
      <trkpt lat="45.65965" lon="6.26774">
        <ele>1560</ele>
        <time>2020-09-16T20:12:41+02:00</time>
      </trkpt>
      <trkpt lat="45.65976" lon="6.26787">
        <ele>1557</ele>
        <time>2020-09-16T20:12:46+02:00</time>
      </trkpt>
      <trkpt lat="45.65993" lon="6.26803">
        <ele>1556</ele>
        <time>2020-09-16T20:12:51+02:00</time>
      </trkpt>
      <trkpt lat="45.66" lon="6.26809">
        <ele>1556</ele>
        <time>2020-09-16T20:12:56+02:00</time>
      </trkpt>
      <trkpt lat="45.66015" lon="6.26816">
        <ele>1555</ele>
        <time>2020-09-16T20:13:01+02:00</time>
      </trkpt>
      <trkpt lat="45.66058" lon="6.26822">
        <ele>1551</ele>
        <time>2020-09-16T20:13:06+02:00</time>
      </trkpt>
      <trkpt lat="45.66076" lon="6.26813">
        <ele>1552</ele>
        <time>2020-09-16T20:13:11+02:00</time>
      </trkpt>
      <trkpt lat="45.66099" lon="6.26805">
        <ele>1556</ele>
        <time>2020-09-16T20:13:16+02:00</time>
      </trkpt>
      <trkpt lat="45.66116" lon="6.26803">
        <ele>1559</ele>
        <time>2020-09-16T20:13:21+02:00</time>
      </trkpt>
      <trkpt lat="45.66141" lon="6.26798">
        <ele>1564</ele>
        <time>2020-09-16T20:13:26+02:00</time>
      </trkpt>
      <trkpt lat="45.6616" lon="6.26775">
        <ele>1575</ele>
        <time>2020-09-16T20:13:31+02:00</time>
      </trkpt>
      <trkpt lat="45.66173" lon="6.26769">
        <ele>1579</ele>
        <time>2020-09-16T20:13:36+02:00</time>
      </trkpt>
      <trkpt lat="45.66192" lon="6.26768">
        <ele>1583</ele>
        <time>2020-09-16T20:13:41+02:00</time>
      </trkpt>
      <trkpt lat="45.66208" lon="6.26772">
        <ele>1582</ele>
        <time>2020-09-16T20:13:46+02:00</time>
      </trkpt>
      <trkpt lat="45.66223" lon="6.26773">
        <ele>1582</ele>
        <time>2020-09-16T20:13:51+02:00</time>
      </trkpt>
      <trkpt lat="45.66238" lon="6.26779">
        <ele>1583</ele>
        <time>2020-09-16T20:13:56+02:00</time>
      </trkpt>
      <trkpt lat="45.6626" lon="6.26798">
        <ele>1582</ele>
        <time>2020-09-16T20:14:01+02:00</time>
      </trkpt>
      <trkpt lat="45.66291" lon="6.26818">
        <ele>1579</ele>
        <time>2020-09-16T20:14:06+02:00</time>
      </trkpt>
      <trkpt lat="45.66303" lon="6.26812">
        <ele>1584</ele>
        <time>2020-09-16T20:14:11+02:00</time>
      </trkpt>
      <trkpt lat="45.66318" lon="6.2681">
        <ele>1594</ele>
        <time>2020-09-16T20:14:16+02:00</time>
      </trkpt>
      <trkpt lat="45.66324" lon="6.2681">
        <ele>1597</ele>
        <time>2020-09-16T20:14:21+02:00</time>
      </trkpt>
      <trkpt lat="45.66344" lon="6.26829">
        <ele>1589</ele>
        <time>2020-09-16T20:14:26+02:00</time>
      </trkpt>
      <trkpt lat="45.66366" lon="6.26829">
        <ele>1602</ele>
        <time>2020-09-16T20:14:31+02:00</time>
      </trkpt>
      <trkpt lat="45.66388" lon="6.26838">
        <ele>1607</ele>
        <time>2020-09-16T20:14:36+02:00</time>
      </trkpt>
      <trkpt lat="45.66411" lon="6.26844">
        <ele>1613</ele>
        <time>2020-09-16T20:14:41+02:00</time>
      </trkpt>
      <trkpt lat="45.66425" lon="6.26847">
        <ele>1615</ele>
        <time>2020-09-16T20:14:46+02:00</time>
      </trkpt>
      <trkpt lat="45.66447" lon="6.26853">
        <ele>1618</ele>
        <time>2020-09-16T20:14:51+02:00</time>
      </trkpt>
      <trkpt lat="45.66452" lon="6.26851">
        <ele>1618</ele>
        <time>2020-09-16T20:14:56+02:00</time>
      </trkpt>
      <trkpt lat="45.66454" lon="6.26841">
        <ele>1620</ele>
        <time>2020-09-16T20:15:01+02:00</time>
      </trkpt>
      <trkpt lat="45.66453" lon="6.26827">
        <ele>1621</ele>
        <time>2020-09-16T20:15:06+02:00</time>
      </trkpt>
      <trkpt lat="45.66463" lon="6.26819">
        <ele>1618</ele>
        <time>2020-09-16T20:15:11+02:00</time>
      </trkpt>
      <trkpt lat="45.66476" lon="6.26826">
        <ele>1615</ele>
        <time>2020-09-16T20:15:16+02:00</time>
      </trkpt>
      <trkpt lat="45.66485" lon="6.26839">
        <ele>1614</ele>
        <time>2020-09-16T20:15:21+02:00</time>
      </trkpt>
      <trkpt lat="45.66489" lon="6.2685">
        <ele>1614</ele>
        <time>2020-09-16T20:15:26+02:00</time>
      </trkpt>
      <trkpt lat="45.66495" lon="6.26864">
        <ele>1615</ele>
        <time>2020-09-16T20:15:31+02:00</time>
      </trkpt>
      <trkpt lat="45.66501" lon="6.26892">
        <ele>1616</ele>
        <time>2020-09-16T20:15:36+02:00</time>
      </trkpt>
      <trkpt lat="45.66511" lon="6.26904">
        <ele>1613</ele>
        <time>2020-09-16T20:15:41+02:00</time>
      </trkpt>
      <trkpt lat="45.66531" lon="6.26917">
        <ele>1610</ele>
        <time>2020-09-16T20:15:46+02:00</time>
      </trkpt>
      <trkpt lat="45.6655" lon="6.26933">
        <ele>1610</ele>
        <time>2020-09-16T20:15:51+02:00</time>
      </trkpt>
      <trkpt lat="45.66561" lon="6.26932">
        <ele>1609</ele>
        <time>2020-09-16T20:15:56+02:00</time>
      </trkpt>
      <trkpt lat="45.66572" lon="6.26928">
        <ele>1607</ele>
        <time>2020-09-16T20:16:01+02:00</time>
      </trkpt>
      <trkpt lat="45.666" lon="6.26922">
        <ele>1598</ele>
        <time>2020-09-16T20:16:06+02:00</time>
      </trkpt>
      <trkpt lat="45.66621" lon="6.26922">
        <ele>1590</ele>
        <time>2020-09-16T20:16:11+02:00</time>
      </trkpt>
      <trkpt lat="45.66642" lon="6.26923">
        <ele>1583</ele>
        <time>2020-09-16T20:16:16+02:00</time>
      </trkpt>
      <trkpt lat="45.66653" lon="6.26922">
        <ele>1578</ele>
        <time>2020-09-16T20:16:21+02:00</time>
      </trkpt>
      <trkpt lat="45.66663" lon="6.26926">
        <ele>1575</ele>
        <time>2020-09-16T20:16:26+02:00</time>
      </trkpt>
      <trkpt lat="45.66683" lon="6.26926">
        <ele>1566</ele>
        <time>2020-09-16T20:16:31+02:00</time>
      </trkpt>
      <trkpt lat="45.66694" lon="6.26937">
        <ele>1565</ele>
        <time>2020-09-16T20:16:36+02:00</time>
      </trkpt>
      <trkpt lat="45.667" lon="6.26942">
        <ele>1564</ele>
        <time>2020-09-16T20:16:41+02:00</time>
      </trkpt>
      <trkpt lat="45.66705" lon="6.26943">
        <ele>1562</ele>
        <time>2020-09-16T20:16:46+02:00</time>
      </trkpt>
      <trkpt lat="45.66709" lon="6.26935">
        <ele>1559</ele>
        <time>2020-09-16T20:16:51+02:00</time>
      </trkpt>
      <trkpt lat="45.66714" lon="6.26941">
        <ele>1559</ele>
        <time>2020-09-16T20:16:56+02:00</time>
      </trkpt>
      <trkpt lat="45.66723" lon="6.26933">
        <ele>1554</ele>
        <time>2020-09-16T20:17:01+02:00</time>
      </trkpt>
      <trkpt lat="45.66739" lon="6.26926">
        <ele>1548</ele>
        <time>2020-09-16T20:17:06+02:00</time>
      </trkpt>
      <trkpt lat="45.66743" lon="6.26927">
        <ele>1548</ele>
        <time>2020-09-16T20:17:11+02:00</time>
      </trkpt>
      <trkpt lat="45.66757" lon="6.26927">
        <ele>1543</ele>
        <time>2020-09-16T20:17:16+02:00</time>
      </trkpt>
      <trkpt lat="45.66764" lon="6.26927">
        <ele>1541</ele>
        <time>2020-09-16T20:17:21+02:00</time>
      </trkpt>
      <trkpt lat="45.66768" lon="6.26935">
        <ele>1541</ele>
        <time>2020-09-16T20:17:26+02:00</time>
      </trkpt>
      <trkpt lat="45.66768" lon="6.26928">
        <ele>1540</ele>
        <time>2020-09-16T20:17:31+02:00</time>
      </trkpt>
      <trkpt lat="45.66774" lon="6.26935">
        <ele>1540</ele>
        <time>2020-09-16T20:17:36+02:00</time>
      </trkpt>
      <trkpt lat="45.66777" lon="6.26933">
        <ele>1538</ele>
        <time>2020-09-16T20:17:41+02:00</time>
      </trkpt>
      <trkpt lat="45.66785" lon="6.26935">
        <ele>1535</ele>
        <time>2020-09-16T20:17:46+02:00</time>
      </trkpt>
      <trkpt lat="45.66792" lon="6.26941">
        <ele>1533</ele>
        <time>2020-09-16T20:17:51+02:00</time>
      </trkpt>
      <trkpt lat="45.66799" lon="6.26944">
        <ele>1531</ele>
        <time>2020-09-16T20:17:56+02:00</time>
      </trkpt>
      <trkpt lat="45.66807" lon="6.26947">
        <ele>1528</ele>
        <time>2020-09-16T20:18:01+02:00</time>
      </trkpt>
      <trkpt lat="45.66822" lon="6.26955">
        <ele>1526</ele>
        <time>2020-09-16T20:18:06+02:00</time>
      </trkpt>
      <trkpt lat="45.66828" lon="6.26957">
        <ele>1524</ele>
        <time>2020-09-16T20:18:11+02:00</time>
      </trkpt>
      <trkpt lat="45.66836" lon="6.26963">
        <ele>1523</ele>
        <time>2020-09-16T20:18:16+02:00</time>
      </trkpt>
      <trkpt lat="45.66841" lon="6.26963">
        <ele>1522</ele>
        <time>2020-09-16T20:18:21+02:00</time>
      </trkpt>
      <trkpt lat="45.66846" lon="6.26967">
        <ele>1522</ele>
        <time>2020-09-16T20:18:26+02:00</time>
      </trkpt>
      <trkpt lat="45.66854" lon="6.2697">
        <ele>1521</ele>
        <time>2020-09-16T20:18:31+02:00</time>
      </trkpt>
      <trkpt lat="45.66861" lon="6.26973">
        <ele>1520</ele>
        <time>2020-09-16T20:18:36+02:00</time>
      </trkpt>
      <trkpt lat="45.6687" lon="6.26979">
        <ele>1520</ele>
        <time>2020-09-16T20:18:41+02:00</time>
      </trkpt>
      <trkpt lat="45.66876" lon="6.26981">
        <ele>1519</ele>
        <time>2020-09-16T20:18:46+02:00</time>
      </trkpt>
      <trkpt lat="45.66885" lon="6.26985">
        <ele>1519</ele>
        <time>2020-09-16T20:18:51+02:00</time>
      </trkpt>
      <trkpt lat="45.66884" lon="6.27036">
        <ele>1515</ele>
        <time>2020-09-16T20:18:56+02:00</time>
      </trkpt>
      <trkpt lat="45.66884" lon="6.27044">
        <ele>1514</ele>
        <time>2020-09-16T20:19:01+02:00</time>
      </trkpt>
      <trkpt lat="45.66888" lon="6.27064">
        <ele>1511</ele>
        <time>2020-09-16T20:19:06+02:00</time>
      </trkpt>
      <trkpt lat="45.66891" lon="6.27077">
        <ele>1508</ele>
        <time>2020-09-16T20:19:11+02:00</time>
      </trkpt>
      <trkpt lat="45.66893" lon="6.27107">
        <ele>1503</ele>
        <time>2020-09-16T20:19:16+02:00</time>
      </trkpt>
      <trkpt lat="45.66897" lon="6.27118">
        <ele>1502</ele>
        <time>2020-09-16T20:19:21+02:00</time>
      </trkpt>
      <trkpt lat="45.66904" lon="6.27128">
        <ele>1500</ele>
        <time>2020-09-16T20:19:26+02:00</time>
      </trkpt>
      <trkpt lat="45.66907" lon="6.27135">
        <ele>1500</ele>
        <time>2020-09-16T20:19:31+02:00</time>
      </trkpt>
      <trkpt lat="45.66907" lon="6.27162">
        <ele>1495</ele>
        <time>2020-09-16T20:19:36+02:00</time>
      </trkpt>
      <trkpt lat="45.66908" lon="6.27177">
        <ele>1491</ele>
        <time>2020-09-16T20:19:41+02:00</time>
      </trkpt>
      <trkpt lat="45.66906" lon="6.27186">
        <ele>1489</ele>
        <time>2020-09-16T20:19:46+02:00</time>
      </trkpt>
      <trkpt lat="45.66901" lon="6.27214">
        <ele>1482</ele>
        <time>2020-09-16T20:19:51+02:00</time>
      </trkpt>
      <trkpt lat="45.66899" lon="6.27245">
        <ele>1473</ele>
        <time>2020-09-16T20:19:56+02:00</time>
      </trkpt>
      <trkpt lat="45.66897" lon="6.27277">
        <ele>1464</ele>
        <time>2020-09-16T20:20:01+02:00</time>
      </trkpt>
      <trkpt lat="45.66901" lon="6.27293">
        <ele>1462</ele>
        <time>2020-09-16T20:20:06+02:00</time>
      </trkpt>
      <trkpt lat="45.66901" lon="6.27339">
        <ele>1455</ele>
        <time>2020-09-16T20:20:11+02:00</time>
      </trkpt>
      <trkpt lat="45.66901" lon="6.27357">
        <ele>1452</ele>
        <time>2020-09-16T20:20:16+02:00</time>
      </trkpt>
      <trkpt lat="45.66898" lon="6.27375">
        <ele>1448</ele>
        <time>2020-09-16T20:20:21+02:00</time>
      </trkpt>
      <trkpt lat="45.66898" lon="6.27401">
        <ele>1443</ele>
        <time>2020-09-16T20:20:26+02:00</time>
      </trkpt>
      <trkpt lat="45.669" lon="6.27418">
        <ele>1441</ele>
        <time>2020-09-16T20:20:31+02:00</time>
      </trkpt>
      <trkpt lat="45.66908" lon="6.27448">
        <ele>1436</ele>
        <time>2020-09-16T20:20:36+02:00</time>
      </trkpt>
      <trkpt lat="45.66901" lon="6.27464">
        <ele>1428</ele>
        <time>2020-09-16T20:20:41+02:00</time>
      </trkpt>
      <trkpt lat="45.66922" lon="6.27481">
        <ele>1427</ele>
        <time>2020-09-16T20:20:46+02:00</time>
      </trkpt>
      <trkpt lat="45.66911" lon="6.27502">
        <ele>1418</ele>
        <time>2020-09-16T20:20:51+02:00</time>
      </trkpt>
      <trkpt lat="45.66919" lon="6.27517">
        <ele>1414</ele>
        <time>2020-09-16T20:20:56+02:00</time>
      </trkpt>
      <trkpt lat="45.66921" lon="6.27522">
        <ele>1412</ele>
        <time>2020-09-16T20:21:01+02:00</time>
      </trkpt>
      <trkpt lat="45.66929" lon="6.2753">
        <ele>1410</ele>
        <time>2020-09-16T20:21:06+02:00</time>
      </trkpt>
      <trkpt lat="45.66933" lon="6.27532">
        <ele>1410</ele>
        <time>2020-09-16T20:21:11+02:00</time>
      </trkpt>
      <trkpt lat="45.66935" lon="6.27541">
        <ele>1406</ele>
        <time>2020-09-16T20:21:16+02:00</time>
      </trkpt>
      <trkpt lat="45.66932" lon="6.27553">
        <ele>1401</ele>
        <time>2020-09-16T20:21:21+02:00</time>
      </trkpt>
      <trkpt lat="45.66925" lon="6.27561">
        <ele>1397</ele>
        <time>2020-09-16T20:21:26+02:00</time>
      </trkpt>
      <trkpt lat="45.66919" lon="6.27563">
        <ele>1395</ele>
        <time>2020-09-16T20:21:31+02:00</time>
      </trkpt>
      <trkpt lat="45.6691" lon="6.27568">
        <ele>1391</ele>
        <time>2020-09-16T20:21:36+02:00</time>
      </trkpt>
      <trkpt lat="45.66902" lon="6.27571">
        <ele>1388</ele>
        <time>2020-09-16T20:21:41+02:00</time>
      </trkpt>
      <trkpt lat="45.66906" lon="6.27591">
        <ele>1381</ele>
        <time>2020-09-16T20:21:46+02:00</time>
      </trkpt>
      <trkpt lat="45.66895" lon="6.2761">
        <ele>1371</ele>
        <time>2020-09-16T20:21:51+02:00</time>
      </trkpt>
      <trkpt lat="45.66922" lon="6.27637">
        <ele>1365</ele>
        <time>2020-09-16T20:21:56+02:00</time>
      </trkpt>
      <trkpt lat="45.66901" lon="6.27639">
        <ele>1359</ele>
        <time>2020-09-16T20:22:01+02:00</time>
      </trkpt>
      <trkpt lat="45.66915" lon="6.27657">
        <ele>1356</ele>
        <time>2020-09-16T20:22:06+02:00</time>
      </trkpt>
      <trkpt lat="45.66921" lon="6.27668">
        <ele>1353</ele>
        <time>2020-09-16T20:22:11+02:00</time>
      </trkpt>
      <trkpt lat="45.66923" lon="6.27672">
        <ele>1351</ele>
        <time>2020-09-16T20:22:16+02:00</time>
      </trkpt>
      <trkpt lat="45.66919" lon="6.27676">
        <ele>1349</ele>
        <time>2020-09-16T20:22:21+02:00</time>
      </trkpt>
      <trkpt lat="45.66912" lon="6.27676">
        <ele>1347</ele>
        <time>2020-09-16T20:22:26+02:00</time>
      </trkpt>
      <trkpt lat="45.66891" lon="6.27685">
        <ele>1336</ele>
        <time>2020-09-16T20:22:31+02:00</time>
      </trkpt>
      <trkpt lat="45.6689" lon="6.2769">
        <ele>1334</ele>
        <time>2020-09-16T20:22:36+02:00</time>
      </trkpt>
      <trkpt lat="45.66908" lon="6.27711">
        <ele>1330</ele>
        <time>2020-09-16T20:22:41+02:00</time>
      </trkpt>
      <trkpt lat="45.66907" lon="6.27722">
        <ele>1325</ele>
        <time>2020-09-16T20:22:46+02:00</time>
      </trkpt>
      <trkpt lat="45.66892" lon="6.2773">
        <ele>1319</ele>
        <time>2020-09-16T20:22:51+02:00</time>
      </trkpt>
      <trkpt lat="45.66895" lon="6.27736">
        <ele>1319</ele>
        <time>2020-09-16T20:22:56+02:00</time>
      </trkpt>
      <trkpt lat="45.66888" lon="6.27734">
        <ele>1316</ele>
        <time>2020-09-16T20:23:01+02:00</time>
      </trkpt>
      <trkpt lat="45.6688" lon="6.27734">
        <ele>1314</ele>
        <time>2020-09-16T20:23:06+02:00</time>
      </trkpt>
      <trkpt lat="45.66872" lon="6.27742">
        <ele>1309</ele>
        <time>2020-09-16T20:23:11+02:00</time>
      </trkpt>
      <trkpt lat="45.66866" lon="6.27744">
        <ele>1306</ele>
        <time>2020-09-16T20:23:16+02:00</time>
      </trkpt>
      <trkpt lat="45.6685" lon="6.27743">
        <ele>1300</ele>
        <time>2020-09-16T20:23:21+02:00</time>
      </trkpt>
      <trkpt lat="45.6683" lon="6.27732">
        <ele>1293</ele>
        <time>2020-09-16T20:23:26+02:00</time>
      </trkpt>
      <trkpt lat="45.66818" lon="6.27735">
        <ele>1289</ele>
        <time>2020-09-16T20:23:31+02:00</time>
      </trkpt>
      <trkpt lat="45.66808" lon="6.27738">
        <ele>1285</ele>
        <time>2020-09-16T20:23:36+02:00</time>
      </trkpt>
      <trkpt lat="45.66813" lon="6.27743">
        <ele>1285</ele>
        <time>2020-09-16T20:23:41+02:00</time>
      </trkpt>
      <trkpt lat="45.6681" lon="6.27747">
        <ele>1283</ele>
        <time>2020-09-16T20:23:46+02:00</time>
      </trkpt>
      <trkpt lat="45.66797" lon="6.27748">
        <ele>1279</ele>
        <time>2020-09-16T20:23:51+02:00</time>
      </trkpt>
      <trkpt lat="45.66789" lon="6.27753">
        <ele>1278</ele>
        <time>2020-09-16T20:23:56+02:00</time>
      </trkpt>
      <trkpt lat="45.66777" lon="6.27762">
        <ele>1274</ele>
        <time>2020-09-16T20:24:01+02:00</time>
      </trkpt>
      <trkpt lat="45.66768" lon="6.27762">
        <ele>1275</ele>
        <time>2020-09-16T20:24:06+02:00</time>
      </trkpt>
      <trkpt lat="45.66758" lon="6.27779">
        <ele>1268</ele>
        <time>2020-09-16T20:24:11+02:00</time>
      </trkpt>
      <trkpt lat="45.66743" lon="6.27794">
        <ele>1263</ele>
        <time>2020-09-16T20:24:16+02:00</time>
      </trkpt>
      <trkpt lat="45.66729" lon="6.278">
        <ele>1262</ele>
        <time>2020-09-16T20:24:21+02:00</time>
      </trkpt>
      <trkpt lat="45.66724" lon="6.27807">
        <ele>1257</ele>
        <time>2020-09-16T20:24:26+02:00</time>
      </trkpt>
      <trkpt lat="45.66715" lon="6.27819">
        <ele>1254</ele>
        <time>2020-09-16T20:24:31+02:00</time>
      </trkpt>
      <trkpt lat="45.66705" lon="6.27846">
        <ele>1242</ele>
        <time>2020-09-16T20:24:36+02:00</time>
      </trkpt>
      <trkpt lat="45.667" lon="6.27869">
        <ele>1232</ele>
        <time>2020-09-16T20:24:41+02:00</time>
      </trkpt>
      <trkpt lat="45.66701" lon="6.27884">
        <ele>1227</ele>
        <time>2020-09-16T20:24:46+02:00</time>
      </trkpt>
      <trkpt lat="45.66715" lon="6.27876">
        <ele>1234</ele>
        <time>2020-09-16T20:24:51+02:00</time>
      </trkpt>
      <trkpt lat="45.66712" lon="6.27884">
        <ele>1232</ele>
        <time>2020-09-16T20:24:56+02:00</time>
      </trkpt>
      <trkpt lat="45.66704" lon="6.27909">
        <ele>1225</ele>
        <time>2020-09-16T20:25:01+02:00</time>
      </trkpt>
      <trkpt lat="45.66684" lon="6.27938">
        <ele>1213</ele>
        <time>2020-09-16T20:25:06+02:00</time>
      </trkpt>
      <trkpt lat="45.66671" lon="6.27964">
        <ele>1202</ele>
        <time>2020-09-16T20:25:11+02:00</time>
      </trkpt>
      <trkpt lat="45.66637" lon="6.28009">
        <ele>1187</ele>
        <time>2020-09-16T20:25:16+02:00</time>
      </trkpt>
      <trkpt lat="45.66615" lon="6.28031">
        <ele>1177</ele>
        <time>2020-09-16T20:25:21+02:00</time>
      </trkpt>
      <trkpt lat="45.66597" lon="6.28046">
        <ele>1169</ele>
        <time>2020-09-16T20:25:26+02:00</time>
      </trkpt>
      <trkpt lat="45.66573" lon="6.28059">
        <ele>1154</ele>
        <time>2020-09-16T20:25:31+02:00</time>
      </trkpt>
      <trkpt lat="45.66555" lon="6.28071">
        <ele>1145</ele>
        <time>2020-09-16T20:25:36+02:00</time>
      </trkpt>
      <trkpt lat="45.66542" lon="6.28089">
        <ele>1137</ele>
        <time>2020-09-16T20:25:41+02:00</time>
      </trkpt>
      <trkpt lat="45.6654" lon="6.28099">
        <ele>1137</ele>
        <time>2020-09-16T20:25:46+02:00</time>
      </trkpt>
      <trkpt lat="45.6654" lon="6.28114">
        <ele>1139</ele>
        <time>2020-09-16T20:25:51+02:00</time>
      </trkpt>
      <trkpt lat="45.66551" lon="6.28135">
        <ele>1143</ele>
        <time>2020-09-16T20:25:56+02:00</time>
      </trkpt>
      <trkpt lat="45.66556" lon="6.28156">
        <ele>1139</ele>
        <time>2020-09-16T20:26:01+02:00</time>
      </trkpt>
      <trkpt lat="45.66558" lon="6.2818">
        <ele>1130</ele>
        <time>2020-09-16T20:26:06+02:00</time>
      </trkpt>
      <trkpt lat="45.66558" lon="6.28211">
        <ele>1115</ele>
        <time>2020-09-16T20:26:11+02:00</time>
      </trkpt>
      <trkpt lat="45.6656" lon="6.28256">
        <ele>1099</ele>
        <time>2020-09-16T20:26:16+02:00</time>
      </trkpt>
      <trkpt lat="45.66563" lon="6.28296">
        <ele>1087</ele>
        <time>2020-09-16T20:26:21+02:00</time>
      </trkpt>
      <trkpt lat="45.66572" lon="6.28333">
        <ele>1078</ele>
        <time>2020-09-16T20:26:26+02:00</time>
      </trkpt>
      <trkpt lat="45.6658" lon="6.28353">
        <ele>1074</ele>
        <time>2020-09-16T20:26:31+02:00</time>
      </trkpt>
      <trkpt lat="45.66599" lon="6.28379">
        <ele>1071</ele>
        <time>2020-09-16T20:26:36+02:00</time>
      </trkpt>
      <trkpt lat="45.6661" lon="6.28406">
        <ele>1060</ele>
        <time>2020-09-16T20:26:41+02:00</time>
      </trkpt>
      <trkpt lat="45.66644" lon="6.28439">
        <ele>1051</ele>
        <time>2020-09-16T20:26:46+02:00</time>
      </trkpt>
      <trkpt lat="45.66654" lon="6.28466">
        <ele>1041</ele>
        <time>2020-09-16T20:26:51+02:00</time>
      </trkpt>
      <trkpt lat="45.6666" lon="6.28492">
        <ele>1034</ele>
        <time>2020-09-16T20:26:56+02:00</time>
      </trkpt>
      <trkpt lat="45.66662" lon="6.28517">
        <ele>1027</ele>
        <time>2020-09-16T20:27:01+02:00</time>
      </trkpt>
      <trkpt lat="45.6666" lon="6.28547">
        <ele>1017</ele>
        <time>2020-09-16T20:27:06+02:00</time>
      </trkpt>
      <trkpt lat="45.66656" lon="6.28567">
        <ele>1010</ele>
        <time>2020-09-16T20:27:11+02:00</time>
      </trkpt>
      <trkpt lat="45.66651" lon="6.28582">
        <ele>1003</ele>
        <time>2020-09-16T20:27:16+02:00</time>
      </trkpt>
      <trkpt lat="45.66643" lon="6.28593">
        <ele>996</ele>
        <time>2020-09-16T20:27:21+02:00</time>
      </trkpt>
      <trkpt lat="45.66645" lon="6.28604">
        <ele>994</ele>
        <time>2020-09-16T20:27:26+02:00</time>
      </trkpt>
      <trkpt lat="45.6666" lon="6.28624">
        <ele>993</ele>
        <time>2020-09-16T20:27:31+02:00</time>
      </trkpt>
      <trkpt lat="45.6667" lon="6.28622">
        <ele>998</ele>
        <time>2020-09-16T20:27:36+02:00</time>
      </trkpt>
      <trkpt lat="45.66676" lon="6.28622">
        <ele>1002</ele>
        <time>2020-09-16T20:27:41+02:00</time>
      </trkpt>
      <trkpt lat="45.66681" lon="6.28629">
        <ele>1005</ele>
        <time>2020-09-16T20:27:46+02:00</time>
      </trkpt>
      <trkpt lat="45.66679" lon="6.28639">
        <ele>1003</ele>
        <time>2020-09-16T20:27:51+02:00</time>
      </trkpt>
      <trkpt lat="45.66677" lon="6.28646">
        <ele>1002</ele>
        <time>2020-09-16T20:27:56+02:00</time>
      </trkpt>
      <trkpt lat="45.66667" lon="6.2866">
        <ele>992</ele>
        <time>2020-09-16T20:28:01+02:00</time>
      </trkpt>
      <trkpt lat="45.66657" lon="6.28671">
        <ele>987</ele>
        <time>2020-09-16T20:28:06+02:00</time>
      </trkpt>
      <trkpt lat="45.66648" lon="6.28674">
        <ele>983</ele>
        <time>2020-09-16T20:28:11+02:00</time>
      </trkpt>
      <trkpt lat="45.66642" lon="6.28678">
        <ele>979</ele>
        <time>2020-09-16T20:28:16+02:00</time>
      </trkpt>
      <trkpt lat="45.66636" lon="6.28684">
        <ele>976</ele>
        <time>2020-09-16T20:28:21+02:00</time>
      </trkpt>
      <trkpt lat="45.66627" lon="6.287">
        <ele>972</ele>
        <time>2020-09-16T20:28:26+02:00</time>
      </trkpt>
      <trkpt lat="45.6662" lon="6.2873">
        <ele>972</ele>
        <time>2020-09-16T20:28:31+02:00</time>
      </trkpt>
      <trkpt lat="45.66611" lon="6.28768">
        <ele>965</ele>
        <time>2020-09-16T20:28:36+02:00</time>
      </trkpt>
      <trkpt lat="45.66602" lon="6.2879">
        <ele>959</ele>
        <time>2020-09-16T20:28:41+02:00</time>
      </trkpt>
      <trkpt lat="45.66596" lon="6.28824">
        <ele>958</ele>
        <time>2020-09-16T20:28:46+02:00</time>
      </trkpt>
      <trkpt lat="45.66579" lon="6.28862">
        <ele>955</ele>
        <time>2020-09-16T20:28:51+02:00</time>
      </trkpt>
      <trkpt lat="45.66566" lon="6.28906">
        <ele>953</ele>
        <time>2020-09-16T20:28:56+02:00</time>
      </trkpt>
      <trkpt lat="45.66559" lon="6.28944">
        <ele>954</ele>
        <time>2020-09-16T20:29:01+02:00</time>
      </trkpt>
      <trkpt lat="45.66551" lon="6.28962">
        <ele>950</ele>
        <time>2020-09-16T20:29:06+02:00</time>
      </trkpt>
      <trkpt lat="45.66536" lon="6.28978">
        <ele>943</ele>
        <time>2020-09-16T20:29:11+02:00</time>
      </trkpt>
      <trkpt lat="45.66525" lon="6.29007">
        <ele>940</ele>
        <time>2020-09-16T20:29:16+02:00</time>
      </trkpt>
      <trkpt lat="45.66522" lon="6.29033">
        <ele>937</ele>
        <time>2020-09-16T20:29:21+02:00</time>
      </trkpt>
      <trkpt lat="45.66516" lon="6.29079">
        <ele>929</ele>
        <time>2020-09-16T20:29:26+02:00</time>
      </trkpt>
      <trkpt lat="45.66515" lon="6.29112">
        <ele>923</ele>
        <time>2020-09-16T20:29:31+02:00</time>
      </trkpt>
      <trkpt lat="45.66508" lon="6.29142">
        <ele>914</ele>
        <time>2020-09-16T20:29:36+02:00</time>
      </trkpt>
      <trkpt lat="45.66509" lon="6.29165">
        <ele>909</ele>
        <time>2020-09-16T20:29:41+02:00</time>
      </trkpt>
      <trkpt lat="45.66503" lon="6.29208">
        <ele>899</ele>
        <time>2020-09-16T20:29:46+02:00</time>
      </trkpt>
      <trkpt lat="45.66503" lon="6.29225">
        <ele>895</ele>
        <time>2020-09-16T20:29:51+02:00</time>
      </trkpt>
      <trkpt lat="45.66506" lon="6.2925">
        <ele>890</ele>
        <time>2020-09-16T20:29:56+02:00</time>
      </trkpt>
      <trkpt lat="45.66513" lon="6.29293">
        <ele>882</ele>
        <time>2020-09-16T20:30:01+02:00</time>
      </trkpt>
      <trkpt lat="45.66516" lon="6.29325">
        <ele>876</ele>
        <time>2020-09-16T20:30:06+02:00</time>
      </trkpt>
      <trkpt lat="45.6652" lon="6.29345">
        <ele>872</ele>
        <time>2020-09-16T20:30:11+02:00</time>
      </trkpt>
      <trkpt lat="45.66521" lon="6.29357">
        <ele>869</ele>
        <time>2020-09-16T20:30:16+02:00</time>
      </trkpt>
      <trkpt lat="45.66513" lon="6.29372">
        <ele>865</ele>
        <time>2020-09-16T20:30:21+02:00</time>
      </trkpt>
      <trkpt lat="45.6651" lon="6.29396">
        <ele>860</ele>
        <time>2020-09-16T20:30:26+02:00</time>
      </trkpt>
      <trkpt lat="45.66498" lon="6.29454">
        <ele>848</ele>
        <time>2020-09-16T20:30:31+02:00</time>
      </trkpt>
      <trkpt lat="45.66501" lon="6.29472">
        <ele>845</ele>
        <time>2020-09-16T20:30:36+02:00</time>
      </trkpt>
      <trkpt lat="45.66506" lon="6.29484">
        <ele>844</ele>
        <time>2020-09-16T20:30:41+02:00</time>
      </trkpt>
      <trkpt lat="45.66512" lon="6.29486">
        <ele>843</ele>
        <time>2020-09-16T20:30:46+02:00</time>
      </trkpt>
      <trkpt lat="45.66542" lon="6.29492">
        <ele>844</ele>
        <time>2020-09-16T20:30:51+02:00</time>
      </trkpt>
      <trkpt lat="45.66557" lon="6.29503">
        <ele>843</ele>
        <time>2020-09-16T20:30:56+02:00</time>
      </trkpt>
      <trkpt lat="45.66563" lon="6.29511">
        <ele>842</ele>
        <time>2020-09-16T20:31:01+02:00</time>
      </trkpt>
      <trkpt lat="45.66584" lon="6.29569">
        <ele>839</ele>
        <time>2020-09-16T20:31:06+02:00</time>
      </trkpt>
      <trkpt lat="45.66592" lon="6.29614">
        <ele>836</ele>
        <time>2020-09-16T20:31:11+02:00</time>
      </trkpt>
      <trkpt lat="45.66605" lon="6.29657">
        <ele>832</ele>
        <time>2020-09-16T20:31:16+02:00</time>
      </trkpt>
      <trkpt lat="45.66608" lon="6.29677">
        <ele>828</ele>
        <time>2020-09-16T20:31:21+02:00</time>
      </trkpt>
      <trkpt lat="45.66613" lon="6.29687">
        <ele>826</ele>
        <time>2020-09-16T20:31:26+02:00</time>
      </trkpt>
      <trkpt lat="45.66611" lon="6.29723">
        <ele>816</ele>
        <time>2020-09-16T20:31:31+02:00</time>
      </trkpt>
      <trkpt lat="45.66605" lon="6.2974">
        <ele>812</ele>
        <time>2020-09-16T20:31:36+02:00</time>
      </trkpt>
      <trkpt lat="45.66598" lon="6.29753">
        <ele>809</ele>
        <time>2020-09-16T20:31:41+02:00</time>
      </trkpt>
      <trkpt lat="45.66589" lon="6.29764">
        <ele>806</ele>
        <time>2020-09-16T20:31:46+02:00</time>
      </trkpt>
      <trkpt lat="45.66581" lon="6.29777">
        <ele>803</ele>
        <time>2020-09-16T20:31:51+02:00</time>
      </trkpt>
      <trkpt lat="45.66574" lon="6.29789">
        <ele>801</ele>
        <time>2020-09-16T20:31:56+02:00</time>
      </trkpt>
      <trkpt lat="45.66574" lon="6.29795">
        <ele>801</ele>
        <time>2020-09-16T20:32:01+02:00</time>
      </trkpt>
    </trkseg>
  </trk>
</gpx>